<?xml version="1.0" encoding="UTF-8" standalone="no" ?>
<gpx xmlns="http://www.topografix.com/GPX/1/1" xmlns:xsi="http://www.w3.org/2001/XMLSchema-instance" xsi:schemaLocation="http://www.topografix.com/GPX/1/1 http://www.topografix.com/GPX/1/1/gpx.xsd" version="1.1" creator="VisuGPX - https://www.visugpx.com">
  <metadata>
    <name>Raid 2010 - Etape 2 (VTT)</name>
    <desc><![CDATA[Que du bonheur ds le Bavais et les petits extra  made in Jerome!!!]]></desc>
  </metadata>
  <trk>
    <name><![CDATA[DG-100 Track]]></name>
    <trkseg>
      <trkpt lat="45.80368" lon="6.36825">
        <ele>1039.994140625</ele>
        <time>2010-08-27T11:34:03Z</time>
      </trkpt>
      <trkpt lat="45.80364" lon="6.36824">
        <ele>1039.9047851562</ele>
        <time>2010-08-27T11:34:35Z</time>
      </trkpt>
      <trkpt lat="45.8036" lon="6.36828">
        <ele>1038.6999511719</ele>
        <time>2010-08-27T11:36:06Z</time>
      </trkpt>
      <trkpt lat="45.80365" lon="6.36824">
        <ele>1039.9597167969</ele>
        <time>2010-08-27T11:36:59Z</time>
      </trkpt>
      <trkpt lat="45.80344" lon="6.36716">
        <ele>1058.0238037109</ele>
        <time>2010-08-27T11:37:29Z</time>
      </trkpt>
      <trkpt lat="45.80331" lon="6.3668">
        <ele>1062.5886230469</ele>
        <time>2010-08-27T11:37:59Z</time>
      </trkpt>
      <trkpt lat="45.80321" lon="6.3663">
        <ele>1069.1381835938</ele>
        <time>2010-08-27T11:38:29Z</time>
      </trkpt>
      <trkpt lat="45.80318" lon="6.36603">
        <ele>1073.6398925781</ele>
        <time>2010-08-27T11:38:59Z</time>
      </trkpt>
      <trkpt lat="45.80313" lon="6.366">
        <ele>1073.4254150391</ele>
        <time>2010-08-27T11:40:25Z</time>
      </trkpt>
      <trkpt lat="45.80286" lon="6.36583">
        <ele>1071.46484375</ele>
        <time>2010-08-27T11:40:55Z</time>
      </trkpt>
      <trkpt lat="45.80285" lon="6.36589">
        <ele>1069.9360351562</ele>
        <time>2010-08-27T11:41:46Z</time>
      </trkpt>
      <trkpt lat="45.80251" lon="6.36535">
        <ele>1068.7800292969</ele>
        <time>2010-08-27T11:42:16Z</time>
      </trkpt>
      <trkpt lat="45.80226" lon="6.3652">
        <ele>1064.2944335938</ele>
        <time>2010-08-27T11:42:47Z</time>
      </trkpt>
      <trkpt lat="45.8021" lon="6.36485">
        <ele>1062.3232421875</ele>
        <time>2010-08-27T11:43:17Z</time>
      </trkpt>
      <trkpt lat="45.80186" lon="6.36439">
        <ele>1059.1499023438</ele>
        <time>2010-08-27T11:43:47Z</time>
      </trkpt>
      <trkpt lat="45.80168" lon="6.36424">
        <ele>1053.404296875</ele>
        <time>2010-08-27T11:44:17Z</time>
      </trkpt>
      <trkpt lat="45.80172" lon="6.36409">
        <ele>1059.8703613281</ele>
        <time>2010-08-27T11:44:47Z</time>
      </trkpt>
      <trkpt lat="45.80158" lon="6.36376">
        <ele>1062.1020507812</ele>
        <time>2010-08-27T11:45:17Z</time>
      </trkpt>
      <trkpt lat="45.80165" lon="6.36367">
        <ele>1066.9654541016</ele>
        <time>2010-08-27T11:45:47Z</time>
      </trkpt>
      <trkpt lat="45.80147" lon="6.3636">
        <ele>1065.8685302734</ele>
        <time>2010-08-27T11:46:17Z</time>
      </trkpt>
      <trkpt lat="45.80142" lon="6.3636">
        <ele>1065.1030273438</ele>
        <time>2010-08-27T11:47:15Z</time>
      </trkpt>
      <trkpt lat="45.80153" lon="6.36361">
        <ele>1066.6345214844</ele>
        <time>2010-08-27T11:47:45Z</time>
      </trkpt>
      <trkpt lat="45.80148" lon="6.36344">
        <ele>1071.4201660156</ele>
        <time>2010-08-27T11:48:15Z</time>
      </trkpt>
      <trkpt lat="45.80125" lon="6.36327">
        <ele>1068.5751953125</ele>
        <time>2010-08-27T11:48:45Z</time>
      </trkpt>
      <trkpt lat="45.80114" lon="6.36325">
        <ele>1063.7016601562</ele>
        <time>2010-08-27T11:49:15Z</time>
      </trkpt>
      <trkpt lat="45.80118" lon="6.3632">
        <ele>1067.2430419922</ele>
        <time>2010-08-27T11:49:45Z</time>
      </trkpt>
      <trkpt lat="45.80132" lon="6.36311">
        <ele>1075.5399169922</ele>
        <time>2010-08-27T11:50:15Z</time>
      </trkpt>
      <trkpt lat="45.80124" lon="6.36293">
        <ele>1078.4450683594</ele>
        <time>2010-08-27T11:50:45Z</time>
      </trkpt>
      <trkpt lat="45.80109" lon="6.36271">
        <ele>1081.48828125</ele>
        <time>2010-08-27T11:51:15Z</time>
      </trkpt>
      <trkpt lat="45.80099" lon="6.36267">
        <ele>1079.6342773438</ele>
        <time>2010-08-27T11:51:45Z</time>
      </trkpt>
      <trkpt lat="45.8007" lon="6.36228">
        <ele>1085.0307617188</ele>
        <time>2010-08-27T11:52:15Z</time>
      </trkpt>
      <trkpt lat="45.80065" lon="6.36212">
        <ele>1088.3937988281</ele>
        <time>2010-08-27T11:52:45Z</time>
      </trkpt>
      <trkpt lat="45.80048" lon="6.36191">
        <ele>1087.9569091797</ele>
        <time>2010-08-27T11:53:15Z</time>
      </trkpt>
      <trkpt lat="45.80022" lon="6.36173">
        <ele>1080.7358398438</ele>
        <time>2010-08-27T11:53:45Z</time>
      </trkpt>
      <trkpt lat="45.80013" lon="6.36163">
        <ele>1078.3688964844</ele>
        <time>2010-08-27T11:54:15Z</time>
      </trkpt>
      <trkpt lat="45.79999" lon="6.36157">
        <ele>1072.0180664062</ele>
        <time>2010-08-27T11:54:45Z</time>
      </trkpt>
      <trkpt lat="45.79976" lon="6.36137">
        <ele>1066.3786621094</ele>
        <time>2010-08-27T11:55:15Z</time>
      </trkpt>
      <trkpt lat="45.79956" lon="6.36102">
        <ele>1071.7095947266</ele>
        <time>2010-08-27T11:55:45Z</time>
      </trkpt>
      <trkpt lat="45.79942" lon="6.36091">
        <ele>1071.3924560547</ele>
        <time>2010-08-27T11:56:15Z</time>
      </trkpt>
      <trkpt lat="45.79895" lon="6.36088">
        <ele>1053.6037597656</ele>
        <time>2010-08-27T11:56:45Z</time>
      </trkpt>
      <trkpt lat="45.79852" lon="6.36057">
        <ele>1051.9261474609</ele>
        <time>2010-08-27T11:57:15Z</time>
      </trkpt>
      <trkpt lat="45.798" lon="6.36023">
        <ele>1047.7498779297</ele>
        <time>2010-08-27T11:57:45Z</time>
      </trkpt>
      <trkpt lat="45.79711" lon="6.35953">
        <ele>1041.5603027344</ele>
        <time>2010-08-27T11:58:15Z</time>
      </trkpt>
      <trkpt lat="45.79622" lon="6.35864">
        <ele>1029.9544677734</ele>
        <time>2010-08-27T11:58:45Z</time>
      </trkpt>
      <trkpt lat="45.79604" lon="6.35873">
        <ele>1020.8709716797</ele>
        <time>2010-08-27T11:59:15Z</time>
      </trkpt>
      <trkpt lat="45.79597" lon="6.35905">
        <ele>1011.1934814453</ele>
        <time>2010-08-27T11:59:45Z</time>
      </trkpt>
      <trkpt lat="45.79591" lon="6.35942">
        <ele>999.32403564453</ele>
        <time>2010-08-27T12:00:15Z</time>
      </trkpt>
      <trkpt lat="45.7965" lon="6.36072">
        <ele>988.02416992188</ele>
        <time>2010-08-27T12:00:45Z</time>
      </trkpt>
      <trkpt lat="45.79721" lon="6.36171">
        <ele>976.09649658203</ele>
        <time>2010-08-27T12:01:15Z</time>
      </trkpt>
      <trkpt lat="45.79708" lon="6.36207">
        <ele>961.75158691406</ele>
        <time>2010-08-27T12:01:45Z</time>
      </trkpt>
      <trkpt lat="45.79725" lon="6.36238">
        <ele>957.13250732422</ele>
        <time>2010-08-27T12:02:15Z</time>
      </trkpt>
      <trkpt lat="45.79744" lon="6.36261">
        <ele>953.21844482422</ele>
        <time>2010-08-27T12:02:45Z</time>
      </trkpt>
      <trkpt lat="45.79786" lon="6.36349">
        <ele>941.28363037109</ele>
        <time>2010-08-27T12:03:15Z</time>
      </trkpt>
      <trkpt lat="45.79752" lon="6.36384">
        <ele>928.21655273438</ele>
        <time>2010-08-27T12:03:45Z</time>
      </trkpt>
      <trkpt lat="45.79779" lon="6.36399">
        <ele>930.20751953125</ele>
        <time>2010-08-27T12:04:15Z</time>
      </trkpt>
      <trkpt lat="45.79775" lon="6.36402">
        <ele>929.16473388672</ele>
        <time>2010-08-27T12:06:37Z</time>
      </trkpt>
      <trkpt lat="45.79839" lon="6.36502">
        <ele>930.89923095703</ele>
        <time>2010-08-27T12:07:07Z</time>
      </trkpt>
      <trkpt lat="45.7991" lon="6.36697">
        <ele>919.16430664062</ele>
        <time>2010-08-27T12:07:37Z</time>
      </trkpt>
      <trkpt lat="45.79883" lon="6.36883">
        <ele>918.75518798828</ele>
        <time>2010-08-27T12:08:07Z</time>
      </trkpt>
      <trkpt lat="45.79802" lon="6.36861">
        <ele>915.07733154297</ele>
        <time>2010-08-27T12:08:37Z</time>
      </trkpt>
      <trkpt lat="45.79714" lon="6.36831">
        <ele>915.2890625</ele>
        <time>2010-08-27T12:09:07Z</time>
      </trkpt>
      <trkpt lat="45.79571" lon="6.36748">
        <ele>916.61096191406</ele>
        <time>2010-08-27T12:09:37Z</time>
      </trkpt>
      <trkpt lat="45.79336" lon="6.36697">
        <ele>916.89111328125</ele>
        <time>2010-08-27T12:10:07Z</time>
      </trkpt>
      <trkpt lat="45.79196" lon="6.36609">
        <ele>929.11492919922</ele>
        <time>2010-08-27T12:10:37Z</time>
      </trkpt>
      <trkpt lat="45.79079" lon="6.3648">
        <ele>926.63031005859</ele>
        <time>2010-08-27T12:11:07Z</time>
      </trkpt>
      <trkpt lat="45.78968" lon="6.36451">
        <ele>941.59399414062</ele>
        <time>2010-08-27T12:11:37Z</time>
      </trkpt>
      <trkpt lat="45.78883" lon="6.36457">
        <ele>958.74517822266</ele>
        <time>2010-08-27T12:12:07Z</time>
      </trkpt>
      <trkpt lat="45.78855" lon="6.36361">
        <ele>943.67309570312</ele>
        <time>2010-08-27T12:12:37Z</time>
      </trkpt>
      <trkpt lat="45.78791" lon="6.36306">
        <ele>946.31872558594</ele>
        <time>2010-08-27T12:13:07Z</time>
      </trkpt>
      <trkpt lat="45.78774" lon="6.36223">
        <ele>930.99548339844</ele>
        <time>2010-08-27T12:13:37Z</time>
      </trkpt>
      <trkpt lat="45.78716" lon="6.36168">
        <ele>934.84063720703</ele>
        <time>2010-08-27T12:14:07Z</time>
      </trkpt>
      <trkpt lat="45.78669" lon="6.36136">
        <ele>946.23999023438</ele>
        <time>2010-08-27T12:14:37Z</time>
      </trkpt>
      <trkpt lat="45.78642" lon="6.36061">
        <ele>939.55352783203</ele>
        <time>2010-08-27T12:15:07Z</time>
      </trkpt>
      <trkpt lat="45.78578" lon="6.35996">
        <ele>960.94915771484</ele>
        <time>2010-08-27T12:15:37Z</time>
      </trkpt>
      <trkpt lat="45.78567" lon="6.3589">
        <ele>947.13208007812</ele>
        <time>2010-08-27T12:16:07Z</time>
      </trkpt>
      <trkpt lat="45.78559" lon="6.35752">
        <ele>919.08135986328</ele>
        <time>2010-08-27T12:16:37Z</time>
      </trkpt>
      <trkpt lat="45.78456" lon="6.35623">
        <ele>941.923828125</ele>
        <time>2010-08-27T12:17:07Z</time>
      </trkpt>
      <trkpt lat="45.78311" lon="6.35431">
        <ele>965.54809570312</ele>
        <time>2010-08-27T12:17:37Z</time>
      </trkpt>
      <trkpt lat="45.78223" lon="6.35166">
        <ele>949.63269042969</ele>
        <time>2010-08-27T12:18:07Z</time>
      </trkpt>
      <trkpt lat="45.78034" lon="6.3498">
        <ele>954.17095947266</ele>
        <time>2010-08-27T12:18:37Z</time>
      </trkpt>
      <trkpt lat="45.77915" lon="6.34918">
        <ele>944.26397705078</ele>
        <time>2010-08-27T12:19:07Z</time>
      </trkpt>
      <trkpt lat="45.77938" lon="6.34967">
        <ele>954.34375</ele>
        <time>2010-08-27T12:19:37Z</time>
      </trkpt>
      <trkpt lat="45.77969" lon="6.35008">
        <ele>958.30523681641</ele>
        <time>2010-08-27T12:20:07Z</time>
      </trkpt>
      <trkpt lat="45.78002" lon="6.35051">
        <ele>960.47326660156</ele>
        <time>2010-08-27T12:20:37Z</time>
      </trkpt>
      <trkpt lat="45.78035" lon="6.35091">
        <ele>967.41613769531</ele>
        <time>2010-08-27T12:21:07Z</time>
      </trkpt>
      <trkpt lat="45.78067" lon="6.35134">
        <ele>971.44055175781</ele>
        <time>2010-08-27T12:21:37Z</time>
      </trkpt>
      <trkpt lat="45.78105" lon="6.35167">
        <ele>970.92388916016</ele>
        <time>2010-08-27T12:22:07Z</time>
      </trkpt>
      <trkpt lat="45.78087" lon="6.35237">
        <ele>986.57751464844</ele>
        <time>2010-08-27T12:22:37Z</time>
      </trkpt>
      <trkpt lat="45.78088" lon="6.35307">
        <ele>999.64453125</ele>
        <time>2010-08-27T12:23:07Z</time>
      </trkpt>
      <trkpt lat="45.78083" lon="6.3535">
        <ele>1007.3840942383</ele>
        <time>2010-08-27T12:23:37Z</time>
      </trkpt>
      <trkpt lat="45.78033" lon="6.35347">
        <ele>1013.8259887695</ele>
        <time>2010-08-27T12:24:07Z</time>
      </trkpt>
      <trkpt lat="45.77972" lon="6.35309">
        <ele>1010.6165771484</ele>
        <time>2010-08-27T12:24:37Z</time>
      </trkpt>
      <trkpt lat="45.77954" lon="6.35298">
        <ele>1008.6424560547</ele>
        <time>2010-08-27T12:25:07Z</time>
      </trkpt>
      <trkpt lat="45.77952" lon="6.35304">
        <ele>1009.7239379883</ele>
        <time>2010-08-27T12:27:42Z</time>
      </trkpt>
      <trkpt lat="45.77908" lon="6.35318">
        <ele>1007.5843505859</ele>
        <time>2010-08-27T12:28:12Z</time>
      </trkpt>
      <trkpt lat="45.77845" lon="6.35369">
        <ele>992.40728759766</ele>
        <time>2010-08-27T12:28:42Z</time>
      </trkpt>
      <trkpt lat="45.77843" lon="6.35376">
        <ele>991.95111083984</ele>
        <time>2010-08-27T12:30:27Z</time>
      </trkpt>
      <trkpt lat="45.77855" lon="6.35475">
        <ele>1006.7184448242</ele>
        <time>2010-08-27T12:30:57Z</time>
      </trkpt>
      <trkpt lat="45.77896" lon="6.35572">
        <ele>1021.0503540039</ele>
        <time>2010-08-27T12:31:27Z</time>
      </trkpt>
      <trkpt lat="45.77898" lon="6.35598">
        <ele>1020.9218139648</ele>
        <time>2010-08-27T12:31:57Z</time>
      </trkpt>
      <trkpt lat="45.77902" lon="6.35594">
        <ele>1023.0340576172</ele>
        <time>2010-08-27T12:32:46Z</time>
      </trkpt>
      <trkpt lat="45.7791" lon="6.35605">
        <ele>1026.6147460938</ele>
        <time>2010-08-27T12:33:16Z</time>
      </trkpt>
      <trkpt lat="45.77915" lon="6.35611">
        <ele>1029.263671875</ele>
        <time>2010-08-27T12:33:46Z</time>
      </trkpt>
      <trkpt lat="45.779" lon="6.35612">
        <ele>1021.3464355469</ele>
        <time>2010-08-27T12:34:16Z</time>
      </trkpt>
      <trkpt lat="45.77902" lon="6.35606">
        <ele>1022.6228637695</ele>
        <time>2010-08-27T12:35:38Z</time>
      </trkpt>
      <trkpt lat="45.77909" lon="6.35601">
        <ele>1026.2764892578</ele>
        <time>2010-08-27T12:36:08Z</time>
      </trkpt>
      <trkpt lat="45.77906" lon="6.35609">
        <ele>1024.4780273438</ele>
        <time>2010-08-27T12:36:38Z</time>
      </trkpt>
      <trkpt lat="45.77899" lon="6.3561">
        <ele>1021.2142333984</ele>
        <time>2010-08-27T12:37:08Z</time>
      </trkpt>
      <trkpt lat="45.77894" lon="6.35616">
        <ele>1018.4232177734</ele>
        <time>2010-08-27T12:37:38Z</time>
      </trkpt>
      <trkpt lat="45.77903" lon="6.35608">
        <ele>1023.1627197266</ele>
        <time>2010-08-27T12:38:08Z</time>
      </trkpt>
      <trkpt lat="45.77893" lon="6.35606">
        <ele>1018.4572143555</ele>
        <time>2010-08-27T12:38:38Z</time>
      </trkpt>
      <trkpt lat="45.77896" lon="6.35597">
        <ele>1019.8472290039</ele>
        <time>2010-08-27T12:39:08Z</time>
      </trkpt>
      <trkpt lat="45.779" lon="6.35604">
        <ele>1021.9060668945</ele>
        <time>2010-08-27T12:39:38Z</time>
      </trkpt>
      <trkpt lat="45.77895" lon="6.35619">
        <ele>1018.4733276367</ele>
        <time>2010-08-27T12:40:08Z</time>
      </trkpt>
      <trkpt lat="45.77898" lon="6.35616">
        <ele>1020.6254882812</ele>
        <time>2010-08-27T12:40:54Z</time>
      </trkpt>
      <trkpt lat="45.77901" lon="6.35595">
        <ele>1022.6464233398</ele>
        <time>2010-08-27T12:41:24Z</time>
      </trkpt>
      <trkpt lat="45.7789" lon="6.35604">
        <ele>1016.8179321289</ele>
        <time>2010-08-27T12:41:54Z</time>
      </trkpt>
      <trkpt lat="45.77886" lon="6.35609">
        <ele>1014.3071899414</ele>
        <time>2010-08-27T12:42:26Z</time>
      </trkpt>
      <trkpt lat="45.77886" lon="6.3562">
        <ele>1013.6607666016</ele>
        <time>2010-08-27T12:42:56Z</time>
      </trkpt>
      <trkpt lat="45.77896" lon="6.35617">
        <ele>1019.5792236328</ele>
        <time>2010-08-27T12:43:26Z</time>
      </trkpt>
      <trkpt lat="45.77893" lon="6.35614">
        <ele>1017.7661743164</ele>
        <time>2010-08-27T12:43:56Z</time>
      </trkpt>
      <trkpt lat="45.77888" lon="6.3562">
        <ele>1015.1507568359</ele>
        <time>2010-08-27T12:44:31Z</time>
      </trkpt>
      <trkpt lat="45.77893" lon="6.35616">
        <ele>1017.6133422852</ele>
        <time>2010-08-27T12:45:02Z</time>
      </trkpt>
      <trkpt lat="45.77899" lon="6.35612">
        <ele>1021.1421508789</ele>
        <time>2010-08-27T12:45:32Z</time>
      </trkpt>
      <trkpt lat="45.77895" lon="6.35609">
        <ele>1019.1353149414</ele>
        <time>2010-08-27T12:46:14Z</time>
      </trkpt>
      <trkpt lat="45.77891" lon="6.35612">
        <ele>1017.0662231445</ele>
        <time>2010-08-27T12:47:27Z</time>
      </trkpt>
      <trkpt lat="45.77888" lon="6.3562">
        <ele>1015.1372070312</ele>
        <time>2010-08-27T12:47:57Z</time>
      </trkpt>
      <trkpt lat="45.77895" lon="6.35615">
        <ele>1018.6895141602</ele>
        <time>2010-08-27T12:48:27Z</time>
      </trkpt>
      <trkpt lat="45.77899" lon="6.35606">
        <ele>1021.1044311523</ele>
        <time>2010-08-27T12:48:57Z</time>
      </trkpt>
      <trkpt lat="45.77884" lon="6.3561">
        <ele>1013.1845092773</ele>
        <time>2010-08-27T12:49:27Z</time>
      </trkpt>
      <trkpt lat="45.7788" lon="6.35617">
        <ele>1010.4080200195</ele>
        <time>2010-08-27T12:49:57Z</time>
      </trkpt>
      <trkpt lat="45.77865" lon="6.35634">
        <ele>1001.9254760742</ele>
        <time>2010-08-27T12:50:27Z</time>
      </trkpt>
      <trkpt lat="45.77863" lon="6.35647">
        <ele>1001.0855712891</ele>
        <time>2010-08-27T12:50:57Z</time>
      </trkpt>
      <trkpt lat="45.77861" lon="6.35636">
        <ele>999.66741943359</ele>
        <time>2010-08-27T12:51:27Z</time>
      </trkpt>
      <trkpt lat="45.77877" lon="6.35626">
        <ele>1008.7827148438</ele>
        <time>2010-08-27T12:51:57Z</time>
      </trkpt>
      <trkpt lat="45.77893" lon="6.35611">
        <ele>1017.9223022461</ele>
        <time>2010-08-27T12:52:27Z</time>
      </trkpt>
      <trkpt lat="45.77898" lon="6.35606">
        <ele>1020.7202148438</ele>
        <time>2010-08-27T12:52:57Z</time>
      </trkpt>
      <trkpt lat="45.77894" lon="6.35604">
        <ele>1018.7047119141</ele>
        <time>2010-08-27T12:53:46Z</time>
      </trkpt>
      <trkpt lat="45.77885" lon="6.35606">
        <ele>1013.9707641602</ele>
        <time>2010-08-27T12:54:16Z</time>
      </trkpt>
      <trkpt lat="45.77877" lon="6.35617">
        <ele>1008.9337768555</ele>
        <time>2010-08-27T12:54:46Z</time>
      </trkpt>
      <trkpt lat="45.7788" lon="6.35612">
        <ele>1010.9006347656</ele>
        <time>2010-08-27T12:55:28Z</time>
      </trkpt>
      <trkpt lat="45.77883" lon="6.35606">
        <ele>1012.8772583008</ele>
        <time>2010-08-27T12:55:58Z</time>
      </trkpt>
      <trkpt lat="45.77894" lon="6.35592">
        <ele>1019.0462036133</ele>
        <time>2010-08-27T12:56:28Z</time>
      </trkpt>
      <trkpt lat="45.77883" lon="6.35609">
        <ele>1012.7570800781</ele>
        <time>2010-08-27T12:56:58Z</time>
      </trkpt>
      <trkpt lat="45.77886" lon="6.35602">
        <ele>1014.5526733398</ele>
        <time>2010-08-27T12:57:46Z</time>
      </trkpt>
      <trkpt lat="45.77884" lon="6.35618">
        <ele>1012.7048339844</ele>
        <time>2010-08-27T12:58:16Z</time>
      </trkpt>
      <trkpt lat="45.77882" lon="6.3564">
        <ele>1010.6875610352</ele>
        <time>2010-08-27T12:58:46Z</time>
      </trkpt>
      <trkpt lat="45.77869" lon="6.35727">
        <ele>1000.4899291992</ele>
        <time>2010-08-27T12:59:16Z</time>
      </trkpt>
      <trkpt lat="45.77834" lon="6.35735">
        <ele>978.19793701172</ele>
        <time>2010-08-27T12:59:46Z</time>
      </trkpt>
      <trkpt lat="45.77795" lon="6.35712">
        <ele>941.75091552734</ele>
        <time>2010-08-27T13:00:16Z</time>
      </trkpt>
      <trkpt lat="45.7779" lon="6.35722">
        <ele>938.41326904297</ele>
        <time>2010-08-27T13:00:46Z</time>
      </trkpt>
      <trkpt lat="45.77785" lon="6.35717">
        <ele>935.07159423828</ele>
        <time>2010-08-27T13:01:16Z</time>
      </trkpt>
      <trkpt lat="45.77794" lon="6.35718">
        <ele>940.71380615234</ele>
        <time>2010-08-27T13:01:46Z</time>
      </trkpt>
      <trkpt lat="45.77789" lon="6.35719">
        <ele>937.53283691406</ele>
        <time>2010-08-27T13:02:18Z</time>
      </trkpt>
      <trkpt lat="45.77784" lon="6.35719">
        <ele>934.36016845703</ele>
        <time>2010-08-27T13:02:48Z</time>
      </trkpt>
      <trkpt lat="45.77789" lon="6.35719">
        <ele>937.27722167969</ele>
        <time>2010-08-27T13:04:03Z</time>
      </trkpt>
      <trkpt lat="45.77781" lon="6.35745">
        <ele>934.45098876953</ele>
        <time>2010-08-27T13:04:33Z</time>
      </trkpt>
      <trkpt lat="45.77723" lon="6.35776">
        <ele>879.38989257812</ele>
        <time>2010-08-27T13:05:03Z</time>
      </trkpt>
      <trkpt lat="45.77717" lon="6.35784">
        <ele>877.71405029297</ele>
        <time>2010-08-27T13:05:33Z</time>
      </trkpt>
      <trkpt lat="45.77667" lon="6.35809">
        <ele>857.7353515625</ele>
        <time>2010-08-27T13:06:04Z</time>
      </trkpt>
      <trkpt lat="45.77613" lon="6.35813">
        <ele>840.6201171875</ele>
        <time>2010-08-27T13:06:34Z</time>
      </trkpt>
      <trkpt lat="45.77555" lon="6.35781">
        <ele>815.82055664062</ele>
        <time>2010-08-27T13:07:04Z</time>
      </trkpt>
      <trkpt lat="45.77549" lon="6.35789">
        <ele>812.10900878906</ele>
        <time>2010-08-27T13:07:34Z</time>
      </trkpt>
      <trkpt lat="45.77553" lon="6.358">
        <ele>813.88806152344</ele>
        <time>2010-08-27T13:08:04Z</time>
      </trkpt>
      <trkpt lat="45.77559" lon="6.35821">
        <ele>815.04162597656</ele>
        <time>2010-08-27T13:08:34Z</time>
      </trkpt>
      <trkpt lat="45.77573" lon="6.35878">
        <ele>820.32946777344</ele>
        <time>2010-08-27T13:09:04Z</time>
      </trkpt>
      <trkpt lat="45.7755" lon="6.35972">
        <ele>802.62939453125</ele>
        <time>2010-08-27T13:09:34Z</time>
      </trkpt>
      <trkpt lat="45.77516" lon="6.36021">
        <ele>779.11682128906</ele>
        <time>2010-08-27T13:10:04Z</time>
      </trkpt>
      <trkpt lat="45.7752" lon="6.36024">
        <ele>782.56781005859</ele>
        <time>2010-08-27T13:10:45Z</time>
      </trkpt>
      <trkpt lat="45.7752" lon="6.3603">
        <ele>783.06884765625</ele>
        <time>2010-08-27T13:11:15Z</time>
      </trkpt>
      <trkpt lat="45.77509" lon="6.3603">
        <ele>773.92492675781</ele>
        <time>2010-08-27T13:11:45Z</time>
      </trkpt>
      <trkpt lat="45.77531" lon="6.36024">
        <ele>791.17889404297</ele>
        <time>2010-08-27T13:12:15Z</time>
      </trkpt>
      <trkpt lat="45.77524" lon="6.36025">
        <ele>785.93548583984</ele>
        <time>2010-08-27T13:12:45Z</time>
      </trkpt>
      <trkpt lat="45.77513" lon="6.36024">
        <ele>777.19274902344</ele>
        <time>2010-08-27T13:13:15Z</time>
      </trkpt>
      <trkpt lat="45.77517" lon="6.3602">
        <ele>780.23358154297</ele>
        <time>2010-08-27T13:14:57Z</time>
      </trkpt>
      <trkpt lat="45.77513" lon="6.36025">
        <ele>777.22052001953</ele>
        <time>2010-08-27T13:15:27Z</time>
      </trkpt>
      <trkpt lat="45.77518" lon="6.36031">
        <ele>781.92163085938</ele>
        <time>2010-08-27T13:15:57Z</time>
      </trkpt>
      <trkpt lat="45.77491" lon="6.36061">
        <ele>763.82141113281</ele>
        <time>2010-08-27T13:16:27Z</time>
      </trkpt>
      <trkpt lat="45.77465" lon="6.36104">
        <ele>752.38464355469</ele>
        <time>2010-08-27T13:16:57Z</time>
      </trkpt>
      <trkpt lat="45.77451" lon="6.36097">
        <ele>740.873046875</ele>
        <time>2010-08-27T13:17:27Z</time>
      </trkpt>
      <trkpt lat="45.77457" lon="6.36104">
        <ele>745.73791503906</ele>
        <time>2010-08-27T13:17:57Z</time>
      </trkpt>
      <trkpt lat="45.7745" lon="6.36111">
        <ele>741.35290527344</ele>
        <time>2010-08-27T13:18:27Z</time>
      </trkpt>
      <trkpt lat="45.77446" lon="6.36114">
        <ele>738.26007080078</ele>
        <time>2010-08-27T13:19:00Z</time>
      </trkpt>
      <trkpt lat="45.77453" lon="6.36115">
        <ele>743.82653808594</ele>
        <time>2010-08-27T13:19:30Z</time>
      </trkpt>
      <trkpt lat="45.77449" lon="6.36113">
        <ele>740.27368164062</ele>
        <time>2010-08-27T13:20:07Z</time>
      </trkpt>
      <trkpt lat="45.77457" lon="6.36114">
        <ele>746.40466308594</ele>
        <time>2010-08-27T13:20:37Z</time>
      </trkpt>
      <trkpt lat="45.77452" lon="6.36115">
        <ele>742.96435546875</ele>
        <time>2010-08-27T13:21:14Z</time>
      </trkpt>
      <trkpt lat="45.77446" lon="6.36114">
        <ele>738.26727294922</ele>
        <time>2010-08-27T13:21:44Z</time>
      </trkpt>
      <trkpt lat="45.77457" lon="6.36103">
        <ele>745.65551757812</ele>
        <time>2010-08-27T13:22:14Z</time>
      </trkpt>
      <trkpt lat="45.77459" lon="6.36098">
        <ele>747.30004882812</ele>
        <time>2010-08-27T13:22:53Z</time>
      </trkpt>
      <trkpt lat="45.7746" lon="6.36109">
        <ele>749.00634765625</ele>
        <time>2010-08-27T13:23:23Z</time>
      </trkpt>
      <trkpt lat="45.77478" lon="6.36113">
        <ele>760.46697998047</ele>
        <time>2010-08-27T13:23:53Z</time>
      </trkpt>
      <trkpt lat="45.77467" lon="6.36092">
        <ele>752.91333007812</ele>
        <time>2010-08-27T13:24:23Z</time>
      </trkpt>
      <trkpt lat="45.77461" lon="6.36097">
        <ele>748.68359375</ele>
        <time>2010-08-27T13:24:53Z</time>
      </trkpt>
      <trkpt lat="45.77458" lon="6.36102">
        <ele>746.45886230469</ele>
        <time>2010-08-27T13:25:24Z</time>
      </trkpt>
      <trkpt lat="45.77453" lon="6.36098">
        <ele>742.39733886719</ele>
        <time>2010-08-27T13:25:54Z</time>
      </trkpt>
      <trkpt lat="45.77446" lon="6.36088">
        <ele>736.80120849609</ele>
        <time>2010-08-27T13:26:24Z</time>
      </trkpt>
      <trkpt lat="45.77441" lon="6.36092">
        <ele>733.1962890625</ele>
        <time>2010-08-27T13:26:54Z</time>
      </trkpt>
      <trkpt lat="45.77437" lon="6.36092">
        <ele>729.48565673828</ele>
        <time>2010-08-27T13:27:52Z</time>
      </trkpt>
      <trkpt lat="45.77445" lon="6.36094">
        <ele>736.05621337891</ele>
        <time>2010-08-27T13:28:22Z</time>
      </trkpt>
      <trkpt lat="45.7743" lon="6.361">
        <ele>724.42517089844</ele>
        <time>2010-08-27T13:28:52Z</time>
      </trkpt>
      <trkpt lat="45.77418" lon="6.36116">
        <ele>715.06451416016</ele>
        <time>2010-08-27T13:29:22Z</time>
      </trkpt>
      <trkpt lat="45.77427" lon="6.3611">
        <ele>722.13598632812</ele>
        <time>2010-08-27T13:29:52Z</time>
      </trkpt>
      <trkpt lat="45.77425" lon="6.36098">
        <ele>720.59838867188</ele>
        <time>2010-08-27T13:30:22Z</time>
      </trkpt>
      <trkpt lat="45.7743" lon="6.36101">
        <ele>724.47082519531</ele>
        <time>2010-08-27T13:30:55Z</time>
      </trkpt>
      <trkpt lat="45.77451" lon="6.36097">
        <ele>740.89703369141</ele>
        <time>2010-08-27T13:31:25Z</time>
      </trkpt>
      <trkpt lat="45.77441" lon="6.36099">
        <ele>733.67010498047</ele>
        <time>2010-08-27T13:31:55Z</time>
      </trkpt>
      <trkpt lat="45.77445" lon="6.36093">
        <ele>735.96008300781</ele>
        <time>2010-08-27T13:32:25Z</time>
      </trkpt>
      <trkpt lat="45.77461" lon="6.36063">
        <ele>746.98565673828</ele>
        <time>2010-08-27T13:32:55Z</time>
      </trkpt>
      <trkpt lat="45.77475" lon="6.35983">
        <ele>752.42437744141</ele>
        <time>2010-08-27T13:33:25Z</time>
      </trkpt>
      <trkpt lat="45.77487" lon="6.35942">
        <ele>759.44482421875</ele>
        <time>2010-08-27T13:33:55Z</time>
      </trkpt>
      <trkpt lat="45.77499" lon="6.35939">
        <ele>766.30139160156</ele>
        <time>2010-08-27T13:34:25Z</time>
      </trkpt>
      <trkpt lat="45.77495" lon="6.35919">
        <ele>766.13409423828</ele>
        <time>2010-08-27T13:34:55Z</time>
      </trkpt>
      <trkpt lat="45.77471" lon="6.35894">
        <ele>756.98284912109</ele>
        <time>2010-08-27T13:35:25Z</time>
      </trkpt>
      <trkpt lat="45.77473" lon="6.35879">
        <ele>759.72552490234</ele>
        <time>2010-08-27T13:35:55Z</time>
      </trkpt>
      <trkpt lat="45.77449" lon="6.35809">
        <ele>743.44451904297</ele>
        <time>2010-08-27T13:36:25Z</time>
      </trkpt>
      <trkpt lat="45.77429" lon="6.35727">
        <ele>735.05151367188</ele>
        <time>2010-08-27T13:36:55Z</time>
      </trkpt>
      <trkpt lat="45.77382" lon="6.35767">
        <ele>703.45465087891</ele>
        <time>2010-08-27T13:37:25Z</time>
      </trkpt>
      <trkpt lat="45.77364" lon="6.35779">
        <ele>690.22393798828</ele>
        <time>2010-08-27T13:37:55Z</time>
      </trkpt>
      <trkpt lat="45.7736" lon="6.35777">
        <ele>687.80163574219</ele>
        <time>2010-08-27T13:38:47Z</time>
      </trkpt>
      <trkpt lat="45.77359" lon="6.35784">
        <ele>686.97009277344</ele>
        <time>2010-08-27T13:39:58Z</time>
      </trkpt>
      <trkpt lat="45.77333" lon="6.3584">
        <ele>673.00549316406</ele>
        <time>2010-08-27T13:40:28Z</time>
      </trkpt>
      <trkpt lat="45.77244" lon="6.35767">
        <ele>638.65466308594</ele>
        <time>2010-08-27T13:40:58Z</time>
      </trkpt>
      <trkpt lat="45.7723" lon="6.35772">
        <ele>631.03289794922</ele>
        <time>2010-08-27T13:41:28Z</time>
      </trkpt>
      <trkpt lat="45.77225" lon="6.35768">
        <ele>628.76696777344</ele>
        <time>2010-08-27T13:41:58Z</time>
      </trkpt>
      <trkpt lat="45.77222" lon="6.35763">
        <ele>627.11901855469</ele>
        <time>2010-08-27T13:44:30Z</time>
      </trkpt>
      <trkpt lat="45.77227" lon="6.35764">
        <ele>629.59094238281</ele>
        <time>2010-08-27T13:45:53Z</time>
      </trkpt>
      <trkpt lat="45.77222" lon="6.35762">
        <ele>627.11901855469</ele>
        <time>2010-08-27T13:46:56Z</time>
      </trkpt>
      <trkpt lat="45.77219" lon="6.35767">
        <ele>625.369140625</ele>
        <time>2010-08-27T13:47:53Z</time>
      </trkpt>
      <trkpt lat="45.77227" lon="6.35769">
        <ele>629.79693603516</ele>
        <time>2010-08-27T13:48:23Z</time>
      </trkpt>
      <trkpt lat="45.77244" lon="6.35823">
        <ele>637.49884033203</ele>
        <time>2010-08-27T13:48:53Z</time>
      </trkpt>
      <trkpt lat="45.77262" lon="6.35869">
        <ele>641.08654785156</ele>
        <time>2010-08-27T13:49:23Z</time>
      </trkpt>
      <trkpt lat="45.77306" lon="6.35908">
        <ele>657.75933837891</ele>
        <time>2010-08-27T13:49:53Z</time>
      </trkpt>
      <trkpt lat="45.77356" lon="6.35937">
        <ele>677.34692382812</ele>
        <time>2010-08-27T13:50:23Z</time>
      </trkpt>
      <trkpt lat="45.77388" lon="6.35988">
        <ele>698.09051513672</ele>
        <time>2010-08-27T13:50:53Z</time>
      </trkpt>
      <trkpt lat="45.77399" lon="6.36049">
        <ele>704.67047119141</ele>
        <time>2010-08-27T13:51:23Z</time>
      </trkpt>
      <trkpt lat="45.77397" lon="6.36111">
        <ele>706.1376953125</ele>
        <time>2010-08-27T13:51:53Z</time>
      </trkpt>
      <trkpt lat="45.77393" lon="6.36175">
        <ele>707.28515625</ele>
        <time>2010-08-27T13:52:23Z</time>
      </trkpt>
      <trkpt lat="45.77407" lon="6.36226">
        <ele>710.37127685547</ele>
        <time>2010-08-27T13:52:53Z</time>
      </trkpt>
      <trkpt lat="45.77445" lon="6.36311">
        <ele>734.08666992188</ele>
        <time>2010-08-27T13:53:23Z</time>
      </trkpt>
      <trkpt lat="45.77426" lon="6.3639">
        <ele>714.17150878906</ele>
        <time>2010-08-27T13:53:53Z</time>
      </trkpt>
      <trkpt lat="45.77428" lon="6.36521">
        <ele>723.58013916016</ele>
        <time>2010-08-27T13:54:23Z</time>
      </trkpt>
      <trkpt lat="45.77429" lon="6.36538">
        <ele>726.01019287109</ele>
        <time>2010-08-27T13:54:53Z</time>
      </trkpt>
      <trkpt lat="45.77363" lon="6.36517">
        <ele>693.13317871094</ele>
        <time>2010-08-27T13:55:23Z</time>
      </trkpt>
      <trkpt lat="45.77335" lon="6.36502">
        <ele>685.85198974609</ele>
        <time>2010-08-27T13:55:53Z</time>
      </trkpt>
      <trkpt lat="45.77303" lon="6.36489">
        <ele>683.61401367188</ele>
        <time>2010-08-27T13:56:23Z</time>
      </trkpt>
      <trkpt lat="45.7725" lon="6.36484">
        <ele>697.55157470703</ele>
        <time>2010-08-27T13:56:54Z</time>
      </trkpt>
      <trkpt lat="45.77245" lon="6.36484">
        <ele>699.30505371094</ele>
        <time>2010-08-27T13:57:24Z</time>
      </trkpt>
      <trkpt lat="45.77234" lon="6.36482">
        <ele>703.48217773438</ele>
        <time>2010-08-27T13:57:54Z</time>
      </trkpt>
      <trkpt lat="45.77243" lon="6.3647">
        <ele>694.22393798828</ele>
        <time>2010-08-27T13:58:24Z</time>
      </trkpt>
      <trkpt lat="45.77226" lon="6.36473">
        <ele>702.69366455078</ele>
        <time>2010-08-27T13:58:54Z</time>
      </trkpt>
      <trkpt lat="45.77243" lon="6.36463">
        <ele>692.35626220703</ele>
        <time>2010-08-27T13:59:24Z</time>
      </trkpt>
      <trkpt lat="45.77227" lon="6.36467">
        <ele>700.15655517578</ele>
        <time>2010-08-27T13:59:54Z</time>
      </trkpt>
      <trkpt lat="45.77211" lon="6.36478">
        <ele>711.12048339844</ele>
        <time>2010-08-27T14:00:24Z</time>
      </trkpt>
      <trkpt lat="45.77167" lon="6.36435">
        <ele>712.69689941406</ele>
        <time>2010-08-27T14:00:55Z</time>
      </trkpt>
      <trkpt lat="45.77128" lon="6.36441">
        <ele>730.93005371094</ele>
        <time>2010-08-27T14:01:25Z</time>
      </trkpt>
      <trkpt lat="45.77116" lon="6.36491">
        <ele>744.28961181641</ele>
        <time>2010-08-27T14:01:56Z</time>
      </trkpt>
      <trkpt lat="45.77104" lon="6.36502">
        <ele>745.40045166016</ele>
        <time>2010-08-27T14:02:26Z</time>
      </trkpt>
      <trkpt lat="45.77082" lon="6.36499">
        <ele>742.78924560547</ele>
        <time>2010-08-27T14:02:57Z</time>
      </trkpt>
      <trkpt lat="45.77072" lon="6.36509">
        <ele>741.93212890625</ele>
        <time>2010-08-27T14:03:27Z</time>
      </trkpt>
      <trkpt lat="45.77076" lon="6.36518">
        <ele>742.72058105469</ele>
        <time>2010-08-27T14:03:57Z</time>
      </trkpt>
      <trkpt lat="45.77069" lon="6.36521">
        <ele>741.83880615234</ele>
        <time>2010-08-27T14:04:27Z</time>
      </trkpt>
      <trkpt lat="45.77074" lon="6.3652">
        <ele>742.51989746094</ele>
        <time>2010-08-27T14:05:10Z</time>
      </trkpt>
      <trkpt lat="45.7707" lon="6.36525">
        <ele>742.00164794922</ele>
        <time>2010-08-27T14:05:43Z</time>
      </trkpt>
      <trkpt lat="45.77073" lon="6.3652">
        <ele>742.32373046875</ele>
        <time>2010-08-27T14:06:22Z</time>
      </trkpt>
      <trkpt lat="45.77081" lon="6.36523">
        <ele>743.43194580078</ele>
        <time>2010-08-27T14:06:52Z</time>
      </trkpt>
      <trkpt lat="45.77087" lon="6.36516">
        <ele>744.16192626953</ele>
        <time>2010-08-27T14:07:23Z</time>
      </trkpt>
      <trkpt lat="45.77079" lon="6.36514">
        <ele>742.92041015625</ele>
        <time>2010-08-27T14:07:53Z</time>
      </trkpt>
      <trkpt lat="45.77085" lon="6.36517">
        <ele>743.83038330078</ele>
        <time>2010-08-27T14:08:23Z</time>
      </trkpt>
      <trkpt lat="45.7708" lon="6.3652">
        <ele>743.29443359375</ele>
        <time>2010-08-27T14:09:13Z</time>
      </trkpt>
      <trkpt lat="45.77077" lon="6.36515">
        <ele>742.68420410156</ele>
        <time>2010-08-27T14:09:47Z</time>
      </trkpt>
      <trkpt lat="45.7707" lon="6.36487">
        <ele>740.38098144531</ele>
        <time>2010-08-27T14:10:18Z</time>
      </trkpt>
      <trkpt lat="45.77066" lon="6.36471">
        <ele>738.68481445312</ele>
        <time>2010-08-27T14:10:48Z</time>
      </trkpt>
      <trkpt lat="45.77071" lon="6.36465">
        <ele>738.25048828125</ele>
        <time>2010-08-27T14:11:18Z</time>
      </trkpt>
      <trkpt lat="45.77065" lon="6.36464">
        <ele>737.82995605469</ele>
        <time>2010-08-27T14:11:54Z</time>
      </trkpt>
      <trkpt lat="45.7706" lon="6.36466">
        <ele>737.61364746094</ele>
        <time>2010-08-27T14:12:35Z</time>
      </trkpt>
      <trkpt lat="45.77065" lon="6.36468">
        <ele>738.15093994141</ele>
        <time>2010-08-27T14:13:05Z</time>
      </trkpt>
      <trkpt lat="45.7706" lon="6.36467">
        <ele>737.76989746094</ele>
        <time>2010-08-27T14:14:07Z</time>
      </trkpt>
      <trkpt lat="45.77029" lon="6.36437">
        <ele>726.75268554688</ele>
        <time>2010-08-27T14:14:37Z</time>
      </trkpt>
      <trkpt lat="45.77033" lon="6.36379">
        <ele>722.62377929688</ele>
        <time>2010-08-27T14:15:07Z</time>
      </trkpt>
      <trkpt lat="45.77039" lon="6.36364">
        <ele>721.31103515625</ele>
        <time>2010-08-27T14:15:37Z</time>
      </trkpt>
      <trkpt lat="45.77032" lon="6.36356">
        <ele>720.62023925781</ele>
        <time>2010-08-27T14:16:08Z</time>
      </trkpt>
      <trkpt lat="45.77037" lon="6.36357">
        <ele>720.45141601562</ele>
        <time>2010-08-27T14:16:43Z</time>
      </trkpt>
      <trkpt lat="45.77015" lon="6.3634">
        <ele>720.22790527344</ele>
        <time>2010-08-27T14:17:13Z</time>
      </trkpt>
      <trkpt lat="45.7701" lon="6.36342">
        <ele>720.30517578125</ele>
        <time>2010-08-27T14:17:44Z</time>
      </trkpt>
      <trkpt lat="45.7701" lon="6.36335">
        <ele>720.05456542969</ele>
        <time>2010-08-27T14:18:17Z</time>
      </trkpt>
      <trkpt lat="45.77026" lon="6.36331">
        <ele>719.38287353516</ele>
        <time>2010-08-27T14:18:47Z</time>
      </trkpt>
      <trkpt lat="45.77023" lon="6.36327">
        <ele>718.07257080078</ele>
        <time>2010-08-27T14:19:19Z</time>
      </trkpt>
      <trkpt lat="45.77002" lon="6.36292">
        <ele>707.82470703125</ele>
        <time>2010-08-27T14:19:50Z</time>
      </trkpt>
      <trkpt lat="45.76977" lon="6.36261">
        <ele>697.71453857422</ele>
        <time>2010-08-27T14:20:20Z</time>
      </trkpt>
      <trkpt lat="45.76985" lon="6.36269">
        <ele>699.66723632812</ele>
        <time>2010-08-27T14:20:50Z</time>
      </trkpt>
      <trkpt lat="45.76963" lon="6.36244">
        <ele>688.96282958984</ele>
        <time>2010-08-27T14:21:21Z</time>
      </trkpt>
      <trkpt lat="45.76905" lon="6.36145">
        <ele>649.26928710938</ele>
        <time>2010-08-27T14:21:51Z</time>
      </trkpt>
      <trkpt lat="45.76901" lon="6.36086">
        <ele>623.18774414062</ele>
        <time>2010-08-27T14:22:21Z</time>
      </trkpt>
      <trkpt lat="45.76899" lon="6.36074">
        <ele>618.86468505859</ele>
        <time>2010-08-27T14:22:51Z</time>
      </trkpt>
      <trkpt lat="45.76915" lon="6.36088">
        <ele>624.88647460938</ele>
        <time>2010-08-27T14:23:21Z</time>
      </trkpt>
      <trkpt lat="45.76941" lon="6.36089">
        <ele>625.66625976562</ele>
        <time>2010-08-27T14:23:52Z</time>
      </trkpt>
      <trkpt lat="45.7695" lon="6.36085">
        <ele>621.43603515625</ele>
        <time>2010-08-27T14:24:22Z</time>
      </trkpt>
      <trkpt lat="45.76945" lon="6.36083">
        <ele>621.72857666016</ele>
        <time>2010-08-27T14:25:01Z</time>
      </trkpt>
      <trkpt lat="45.76944" lon="6.36089">
        <ele>625.78985595703</ele>
        <time>2010-08-27T14:25:45Z</time>
      </trkpt>
      <trkpt lat="45.76948" lon="6.36086">
        <ele>622.56896972656</ele>
        <time>2010-08-27T14:26:20Z</time>
      </trkpt>
      <trkpt lat="45.76957" lon="6.36089">
        <ele>622.205078125</ele>
        <time>2010-08-27T14:26:50Z</time>
      </trkpt>
      <trkpt lat="45.76953" lon="6.36085">
        <ele>621.09954833984</ele>
        <time>2010-08-27T14:27:21Z</time>
      </trkpt>
      <trkpt lat="45.76949" lon="6.36084">
        <ele>621.51153564453</ele>
        <time>2010-08-27T14:27:58Z</time>
      </trkpt>
      <trkpt lat="45.76932" lon="6.36079">
        <ele>620.35064697266</ele>
        <time>2010-08-27T14:28:28Z</time>
      </trkpt>
      <trkpt lat="45.76955" lon="6.36087">
        <ele>621.92010498047</ele>
        <time>2010-08-27T14:28:58Z</time>
      </trkpt>
      <trkpt lat="45.76949" lon="6.36086">
        <ele>622.27716064453</ele>
        <time>2010-08-27T14:29:28Z</time>
      </trkpt>
      <trkpt lat="45.7693" lon="6.3607">
        <ele>616.85736083984</ele>
        <time>2010-08-27T14:29:58Z</time>
      </trkpt>
      <trkpt lat="45.76945" lon="6.36089">
        <ele>625.4013671875</ele>
        <time>2010-08-27T14:30:28Z</time>
      </trkpt>
      <trkpt lat="45.7695" lon="6.36091">
        <ele>625.44946289062</ele>
        <time>2010-08-27T14:31:13Z</time>
      </trkpt>
      <trkpt lat="45.76993" lon="6.36093">
        <ele>616.76641845703</ele>
        <time>2010-08-27T14:31:43Z</time>
      </trkpt>
      <trkpt lat="45.77085" lon="6.36151">
        <ele>608.94232177734</ele>
        <time>2010-08-27T14:32:13Z</time>
      </trkpt>
      <trkpt lat="45.77161" lon="6.36172">
        <ele>600.59234619141</ele>
        <time>2010-08-27T14:32:43Z</time>
      </trkpt>
      <trkpt lat="45.77166" lon="6.36171">
        <ele>599.44482421875</ele>
        <time>2010-08-27T14:33:13Z</time>
      </trkpt>
      <trkpt lat="45.77166" lon="6.3616">
        <ele>597.79840087891</ele>
        <time>2010-08-27T14:33:43Z</time>
      </trkpt>
      <trkpt lat="45.77158" lon="6.36151">
        <ele>597.33880615234</ele>
        <time>2010-08-27T14:34:13Z</time>
      </trkpt>
      <trkpt lat="45.7716" lon="6.36157">
        <ele>597.76574707031</ele>
        <time>2010-08-27T14:34:44Z</time>
      </trkpt>
      <trkpt lat="45.77166" lon="6.36162">
        <ele>597.87756347656</ele>
        <time>2010-08-27T14:35:14Z</time>
      </trkpt>
      <trkpt lat="45.77148" lon="6.36107">
        <ele>589.20892333984</ele>
        <time>2010-08-27T14:35:45Z</time>
      </trkpt>
      <trkpt lat="45.77129" lon="6.36085">
        <ele>580.09008789062</ele>
        <time>2010-08-27T14:36:15Z</time>
      </trkpt>
      <trkpt lat="45.77109" lon="6.36022">
        <ele>573.45233154297</ele>
        <time>2010-08-27T14:36:45Z</time>
      </trkpt>
      <trkpt lat="45.77075" lon="6.35933">
        <ele>560.61975097656</ele>
        <time>2010-08-27T14:37:15Z</time>
      </trkpt>
      <trkpt lat="45.77039" lon="6.35866">
        <ele>551.45294189453</ele>
        <time>2010-08-27T14:37:45Z</time>
      </trkpt>
      <trkpt lat="45.77032" lon="6.35871">
        <ele>549.66461181641</ele>
        <time>2010-08-27T14:38:15Z</time>
      </trkpt>
      <trkpt lat="45.77038" lon="6.35885">
        <ele>551.66198730469</ele>
        <time>2010-08-27T14:38:46Z</time>
      </trkpt>
      <trkpt lat="45.77034" lon="6.35873">
        <ele>550.45989990234</ele>
        <time>2010-08-27T14:39:17Z</time>
      </trkpt>
      <trkpt lat="45.77036" lon="6.35867">
        <ele>550.68029785156</ele>
        <time>2010-08-27T14:40:24Z</time>
      </trkpt>
      <trkpt lat="45.77051" lon="6.35863">
        <ele>554.58343505859</ele>
        <time>2010-08-27T14:40:54Z</time>
      </trkpt>
      <trkpt lat="45.77038" lon="6.35868">
        <ele>551.2158203125</ele>
        <time>2010-08-27T14:41:25Z</time>
      </trkpt>
      <trkpt lat="45.77022" lon="6.3584">
        <ele>546.83972167969</ele>
        <time>2010-08-27T14:41:55Z</time>
      </trkpt>
      <trkpt lat="45.77026" lon="6.35849">
        <ele>547.57556152344</ele>
        <time>2010-08-27T14:42:25Z</time>
      </trkpt>
      <trkpt lat="45.77023" lon="6.35844">
        <ele>546.94580078125</ele>
        <time>2010-08-27T14:43:44Z</time>
      </trkpt>
      <trkpt lat="45.77017" lon="6.35837">
        <ele>545.68035888672</ele>
        <time>2010-08-27T14:44:14Z</time>
      </trkpt>
      <trkpt lat="45.77001" lon="6.35824">
        <ele>541.54644775391</ele>
        <time>2010-08-27T14:44:44Z</time>
      </trkpt>
      <trkpt lat="45.76928" lon="6.3577">
        <ele>516.32562255859</ele>
        <time>2010-08-27T14:45:14Z</time>
      </trkpt>
      <trkpt lat="45.76911" lon="6.35758">
        <ele>511.31689453125</ele>
        <time>2010-08-27T14:45:44Z</time>
      </trkpt>
      <trkpt lat="45.76898" lon="6.35741">
        <ele>503.36743164062</ele>
        <time>2010-08-27T14:46:14Z</time>
      </trkpt>
      <trkpt lat="45.76899" lon="6.35747">
        <ele>504.07565307617</ele>
        <time>2010-08-27T14:46:54Z</time>
      </trkpt>
      <trkpt lat="45.76894" lon="6.35744">
        <ele>501.52307128906</ele>
        <time>2010-08-27T14:47:24Z</time>
      </trkpt>
      <trkpt lat="45.7687" lon="6.35741">
        <ele>497.73516845703</ele>
        <time>2010-08-27T14:47:54Z</time>
      </trkpt>
      <trkpt lat="45.76879" lon="6.35753">
        <ele>498.76190185547</ele>
        <time>2010-08-27T14:48:24Z</time>
      </trkpt>
      <trkpt lat="45.76884" lon="6.35753">
        <ele>498.92324829102</ele>
        <time>2010-08-27T14:48:54Z</time>
      </trkpt>
      <trkpt lat="45.76871" lon="6.35747">
        <ele>498.14791870117</ele>
        <time>2010-08-27T14:49:25Z</time>
      </trkpt>
      <trkpt lat="45.76842" lon="6.35754">
        <ele>497.44009399414</ele>
        <time>2010-08-27T14:49:55Z</time>
      </trkpt>
      <trkpt lat="45.76746" lon="6.35743">
        <ele>480.92504882812</ele>
        <time>2010-08-27T14:50:25Z</time>
      </trkpt>
      <trkpt lat="45.76655" lon="6.35671">
        <ele>466.03106689453</ele>
        <time>2010-08-27T14:50:55Z</time>
      </trkpt>
      <trkpt lat="45.76616" lon="6.35663">
        <ele>455.552734375</ele>
        <time>2010-08-27T14:51:26Z</time>
      </trkpt>
      <trkpt lat="45.76622" lon="6.35654">
        <ele>456.04711914062</ele>
        <time>2010-08-27T14:51:56Z</time>
      </trkpt>
      <trkpt lat="45.76627" lon="6.35656">
        <ele>456.89340209961</ele>
        <time>2010-08-27T14:52:26Z</time>
      </trkpt>
      <trkpt lat="45.76622" lon="6.35657">
        <ele>456.27026367188</ele>
        <time>2010-08-27T14:53:05Z</time>
      </trkpt>
      <trkpt lat="45.76619" lon="6.35651">
        <ele>455.63342285156</ele>
        <time>2010-08-27T14:53:50Z</time>
      </trkpt>
      <trkpt lat="45.76614" lon="6.3553">
        <ele>455.470703125</ele>
        <time>2010-08-27T14:54:21Z</time>
      </trkpt>
      <trkpt lat="45.76661" lon="6.35373">
        <ele>459.79309082031</ele>
        <time>2010-08-27T14:54:51Z</time>
      </trkpt>
      <trkpt lat="45.76725" lon="6.35258">
        <ele>461.64212036133</ele>
        <time>2010-08-27T14:55:21Z</time>
      </trkpt>
      <trkpt lat="45.76721" lon="6.35126">
        <ele>462.92578125</ele>
        <time>2010-08-27T14:55:51Z</time>
      </trkpt>
      <trkpt lat="45.76701" lon="6.35036">
        <ele>462.44262695312</ele>
        <time>2010-08-27T14:56:21Z</time>
      </trkpt>
      <trkpt lat="45.76737" lon="6.34953">
        <ele>466.05187988281</ele>
        <time>2010-08-27T14:56:51Z</time>
      </trkpt>
      <trkpt lat="45.76792" lon="6.34881">
        <ele>470.16870117188</ele>
        <time>2010-08-27T14:57:21Z</time>
      </trkpt>
      <trkpt lat="45.76802" lon="6.34853">
        <ele>470.86053466797</ele>
        <time>2010-08-27T14:57:52Z</time>
      </trkpt>
      <trkpt lat="45.76801" lon="6.34875">
        <ele>470.75067138672</ele>
        <time>2010-08-27T14:58:22Z</time>
      </trkpt>
      <trkpt lat="45.76805" lon="6.34879">
        <ele>470.95166015625</ele>
        <time>2010-08-27T14:59:04Z</time>
      </trkpt>
      <trkpt lat="45.76802" lon="6.34874">
        <ele>470.79672241211</ele>
        <time>2010-08-27T14:59:48Z</time>
      </trkpt>
      <trkpt lat="45.76806" lon="6.34871">
        <ele>471.02319335938</ele>
        <time>2010-08-27T15:01:33Z</time>
      </trkpt>
      <trkpt lat="45.76809" lon="6.34867">
        <ele>471.27038574219</ele>
        <time>2010-08-27T15:02:48Z</time>
      </trkpt>
      <trkpt lat="45.76838" lon="6.34793">
        <ele>473.17889404297</ele>
        <time>2010-08-27T15:03:18Z</time>
      </trkpt>
      <trkpt lat="45.76828" lon="6.34626">
        <ele>474.70651245117</ele>
        <time>2010-08-27T15:03:48Z</time>
      </trkpt>
      <trkpt lat="45.76718" lon="6.34507">
        <ele>471.58770751953</ele>
        <time>2010-08-27T15:04:18Z</time>
      </trkpt>
      <trkpt lat="45.76679" lon="6.34362">
        <ele>473.40029907227</ele>
        <time>2010-08-27T15:04:48Z</time>
      </trkpt>
      <trkpt lat="45.76684" lon="6.34364">
        <ele>473.51873779297</ele>
        <time>2010-08-27T15:05:37Z</time>
      </trkpt>
      <trkpt lat="45.7668" lon="6.3436">
        <ele>473.46600341797</ele>
        <time>2010-08-27T15:06:10Z</time>
      </trkpt>
      <trkpt lat="45.76674" lon="6.34355">
        <ele>473.27374267578</ele>
        <time>2010-08-27T15:06:41Z</time>
      </trkpt>
      <trkpt lat="45.76678" lon="6.34359">
        <ele>473.41107177734</ele>
        <time>2010-08-27T15:07:56Z</time>
      </trkpt>
      <trkpt lat="45.76674" lon="6.34356">
        <ele>473.24627685547</ele>
        <time>2010-08-27T15:08:57Z</time>
      </trkpt>
      <trkpt lat="45.7668" lon="6.34361">
        <ele>473.49346923828</ele>
        <time>2010-08-27T15:09:27Z</time>
      </trkpt>
      <trkpt lat="45.76676" lon="6.34359">
        <ele>473.34240722656</ele>
        <time>2010-08-27T15:10:26Z</time>
      </trkpt>
      <trkpt lat="45.76681" lon="6.34361">
        <ele>473.51361083984</ele>
        <time>2010-08-27T15:10:57Z</time>
      </trkpt>
      <trkpt lat="45.76686" lon="6.34362">
        <ele>473.64233398438</ele>
        <time>2010-08-27T15:14:42Z</time>
      </trkpt>
      <trkpt lat="45.76689" lon="6.34356">
        <ele>473.80932617188</ele>
        <time>2010-08-27T15:15:13Z</time>
      </trkpt>
      <trkpt lat="45.76685" lon="6.34355">
        <ele>473.65826416016</ele>
        <time>2010-08-27T15:15:58Z</time>
      </trkpt>
      <trkpt lat="45.76682" lon="6.34362">
        <ele>473.5221862793</ele>
        <time>2010-08-27T15:18:41Z</time>
      </trkpt>
      <trkpt lat="45.76686" lon="6.34362">
        <ele>473.69384765625</ele>
        <time>2010-08-27T15:19:35Z</time>
      </trkpt>
      <trkpt lat="45.76682" lon="6.34363">
        <ele>473.47927856445</ele>
        <time>2010-08-27T15:20:09Z</time>
      </trkpt>
      <trkpt lat="45.76683" lon="6.34371">
        <ele>473.24752807617</ele>
        <time>2010-08-27T15:20:40Z</time>
      </trkpt>
      <trkpt lat="45.76679" lon="6.34368">
        <ele>473.20977783203</ele>
        <time>2010-08-27T15:21:14Z</time>
      </trkpt>
      <trkpt lat="45.76624" lon="6.34342">
        <ele>471.47473144531</ele>
        <time>2010-08-27T15:21:45Z</time>
      </trkpt>
      <trkpt lat="45.76515" lon="6.3433">
        <ele>465.67102050781</ele>
        <time>2010-08-27T15:22:15Z</time>
      </trkpt>
      <trkpt lat="45.76372" lon="6.34311">
        <ele>467</ele>
        <time>2010-08-27T15:22:45Z</time>
      </trkpt>
      <trkpt lat="45.76326" lon="6.34284">
        <ele>466.56146240234</ele>
        <time>2010-08-27T15:23:15Z</time>
      </trkpt>
      <trkpt lat="45.76294" lon="6.34109">
        <ele>468.03302001953</ele>
        <time>2010-08-27T15:23:46Z</time>
      </trkpt>
      <trkpt lat="45.7626" lon="6.33938">
        <ele>469.52688598633</ele>
        <time>2010-08-27T15:24:16Z</time>
      </trkpt>
      <trkpt lat="45.76228" lon="6.33763">
        <ele>471.63653564453</ele>
        <time>2010-08-27T15:24:46Z</time>
      </trkpt>
      <trkpt lat="45.762" lon="6.33614">
        <ele>473.16915893555</ele>
        <time>2010-08-27T15:25:16Z</time>
      </trkpt>
      <trkpt lat="45.76175" lon="6.33488">
        <ele>475</ele>
        <time>2010-08-27T15:25:46Z</time>
      </trkpt>
      <trkpt lat="45.76143" lon="6.3332">
        <ele>477</ele>
        <time>2010-08-27T15:26:16Z</time>
      </trkpt>
      <trkpt lat="45.7611" lon="6.33144">
        <ele>479</ele>
        <time>2010-08-27T15:26:46Z</time>
      </trkpt>
      <trkpt lat="45.76076" lon="6.32966">
        <ele>482</ele>
        <time>2010-08-27T15:27:16Z</time>
      </trkpt>
      <trkpt lat="45.76042" lon="6.32787">
        <ele>484.685546875</ele>
        <time>2010-08-27T15:27:46Z</time>
      </trkpt>
      <trkpt lat="45.76009" lon="6.32612">
        <ele>487.30001831055</ele>
        <time>2010-08-27T15:28:16Z</time>
      </trkpt>
      <trkpt lat="45.75977" lon="6.3245">
        <ele>489.18371582031</ele>
        <time>2010-08-27T15:28:46Z</time>
      </trkpt>
      <trkpt lat="45.75931" lon="6.32277">
        <ele>492</ele>
        <time>2010-08-27T15:29:16Z</time>
      </trkpt>
      <trkpt lat="45.75872" lon="6.32124">
        <ele>494.8193359375</ele>
        <time>2010-08-27T15:29:46Z</time>
      </trkpt>
      <trkpt lat="45.75803" lon="6.31976">
        <ele>497.78369140625</ele>
        <time>2010-08-27T15:30:16Z</time>
      </trkpt>
      <trkpt lat="45.7572" lon="6.31799">
        <ele>500</ele>
        <time>2010-08-27T15:30:46Z</time>
      </trkpt>
      <trkpt lat="45.75642" lon="6.31632">
        <ele>500</ele>
        <time>2010-08-27T15:31:16Z</time>
      </trkpt>
      <trkpt lat="45.75559" lon="6.31455">
        <ele>500</ele>
        <time>2010-08-27T15:31:46Z</time>
      </trkpt>
      <trkpt lat="45.75474" lon="6.31273">
        <ele>500</ele>
        <time>2010-08-27T15:32:16Z</time>
      </trkpt>
      <trkpt lat="45.75385" lon="6.31084">
        <ele>500</ele>
        <time>2010-08-27T15:32:47Z</time>
      </trkpt>
      <trkpt lat="45.75301" lon="6.30906">
        <ele>500</ele>
        <time>2010-08-27T15:33:17Z</time>
      </trkpt>
      <trkpt lat="45.75223" lon="6.3074">
        <ele>500</ele>
        <time>2010-08-27T15:33:47Z</time>
      </trkpt>
      <trkpt lat="45.75163" lon="6.30561">
        <ele>500</ele>
        <time>2010-08-27T15:34:17Z</time>
      </trkpt>
      <trkpt lat="45.7514" lon="6.30398">
        <ele>500.98690795898</ele>
        <time>2010-08-27T15:34:47Z</time>
      </trkpt>
      <trkpt lat="45.75057" lon="6.30257">
        <ele>504.67916870117</ele>
        <time>2010-08-27T15:35:17Z</time>
      </trkpt>
      <trkpt lat="45.74971" lon="6.30107">
        <ele>515.08740234375</ele>
        <time>2010-08-27T15:35:48Z</time>
      </trkpt>
      <trkpt lat="45.74889" lon="6.29967">
        <ele>517.79534912109</ele>
        <time>2010-08-27T15:36:18Z</time>
      </trkpt>
      <trkpt lat="45.74808" lon="6.29828">
        <ele>518.90765380859</ele>
        <time>2010-08-27T15:36:48Z</time>
      </trkpt>
      <trkpt lat="45.74736" lon="6.29702">
        <ele>518.88598632812</ele>
        <time>2010-08-27T15:37:18Z</time>
      </trkpt>
      <trkpt lat="45.74667" lon="6.29582">
        <ele>518.04962158203</ele>
        <time>2010-08-27T15:37:48Z</time>
      </trkpt>
      <trkpt lat="45.74569" lon="6.29512">
        <ele>519.22698974609</ele>
        <time>2010-08-27T15:38:18Z</time>
      </trkpt>
      <trkpt lat="45.74486" lon="6.29587">
        <ele>530.74926757812</ele>
        <time>2010-08-27T15:38:48Z</time>
      </trkpt>
      <trkpt lat="45.74438" lon="6.29635">
        <ele>538.35845947266</ele>
        <time>2010-08-27T15:39:18Z</time>
      </trkpt>
      <trkpt lat="45.74377" lon="6.29578">
        <ele>539.42779541016</ele>
        <time>2010-08-27T15:39:48Z</time>
      </trkpt>
      <trkpt lat="45.74322" lon="6.29531">
        <ele>540.56628417969</ele>
        <time>2010-08-27T15:40:18Z</time>
      </trkpt>
      <trkpt lat="45.74269" lon="6.29487">
        <ele>539.17388916016</ele>
        <time>2010-08-27T15:40:48Z</time>
      </trkpt>
      <trkpt lat="45.74237" lon="6.29403">
        <ele>534.77801513672</ele>
        <time>2010-08-27T15:41:18Z</time>
      </trkpt>
      <trkpt lat="45.74179" lon="6.29388">
        <ele>532.84716796875</ele>
        <time>2010-08-27T15:41:48Z</time>
      </trkpt>
      <trkpt lat="45.74169" lon="6.29483">
        <ele>536.61474609375</ele>
        <time>2010-08-27T15:42:18Z</time>
      </trkpt>
      <trkpt lat="45.74171" lon="6.29587">
        <ele>543.70764160156</ele>
        <time>2010-08-27T15:42:48Z</time>
      </trkpt>
      <trkpt lat="45.7415" lon="6.2969">
        <ele>550.29650878906</ele>
        <time>2010-08-27T15:43:18Z</time>
      </trkpt>
      <trkpt lat="45.74044" lon="6.29753">
        <ele>550.97863769531</ele>
        <time>2010-08-27T15:43:48Z</time>
      </trkpt>
      <trkpt lat="45.73974" lon="6.29796">
        <ele>550.83776855469</ele>
        <time>2010-08-27T15:44:18Z</time>
      </trkpt>
      <trkpt lat="45.73969" lon="6.29798">
        <ele>550.13635253906</ele>
        <time>2010-08-27T15:46:39Z</time>
      </trkpt>
      <trkpt lat="45.73822" lon="6.29947">
        <ele>559.48193359375</ele>
        <time>2010-08-27T15:47:10Z</time>
      </trkpt>
      <trkpt lat="45.73632" lon="6.30012">
        <ele>559.42639160156</ele>
        <time>2010-08-27T15:47:41Z</time>
      </trkpt>
      <trkpt lat="45.73564" lon="6.30003">
        <ele>559.11401367188</ele>
        <time>2010-08-27T15:48:11Z</time>
      </trkpt>
      <trkpt lat="45.73504" lon="6.30031">
        <ele>560</ele>
        <time>2010-08-27T15:48:41Z</time>
      </trkpt>
      <trkpt lat="45.73463" lon="6.3006">
        <ele>560.98968505859</ele>
        <time>2010-08-27T15:49:11Z</time>
      </trkpt>
      <trkpt lat="45.73416" lon="6.30035">
        <ele>566.53576660156</ele>
        <time>2010-08-27T15:49:41Z</time>
      </trkpt>
      <trkpt lat="45.7337" lon="6.30011">
        <ele>572.57385253906</ele>
        <time>2010-08-27T15:50:11Z</time>
      </trkpt>
      <trkpt lat="45.73336" lon="6.29961">
        <ele>577.65411376953</ele>
        <time>2010-08-27T15:50:41Z</time>
      </trkpt>
      <trkpt lat="45.73296" lon="6.29926">
        <ele>584.00024414062</ele>
        <time>2010-08-27T15:51:11Z</time>
      </trkpt>
      <trkpt lat="45.7325" lon="6.29907">
        <ele>590.70721435547</ele>
        <time>2010-08-27T15:51:41Z</time>
      </trkpt>
      <trkpt lat="45.73211" lon="6.29922">
        <ele>595.48687744141</ele>
        <time>2010-08-27T15:52:11Z</time>
      </trkpt>
      <trkpt lat="45.73169" lon="6.29963">
        <ele>600.2080078125</ele>
        <time>2010-08-27T15:52:41Z</time>
      </trkpt>
      <trkpt lat="45.73138" lon="6.30018">
        <ele>604.92517089844</ele>
        <time>2010-08-27T15:53:11Z</time>
      </trkpt>
      <trkpt lat="45.73131" lon="6.30087">
        <ele>598.53790283203</ele>
        <time>2010-08-27T15:53:41Z</time>
      </trkpt>
      <trkpt lat="45.73087" lon="6.30133">
        <ele>599.84466552734</ele>
        <time>2010-08-27T15:54:11Z</time>
      </trkpt>
      <trkpt lat="45.73048" lon="6.30185">
        <ele>602.30126953125</ele>
        <time>2010-08-27T15:54:41Z</time>
      </trkpt>
      <trkpt lat="45.73" lon="6.30223">
        <ele>607.96990966797</ele>
        <time>2010-08-27T15:55:11Z</time>
      </trkpt>
      <trkpt lat="45.72954" lon="6.30259">
        <ele>620.21057128906</ele>
        <time>2010-08-27T15:55:41Z</time>
      </trkpt>
      <trkpt lat="45.72905" lon="6.30295">
        <ele>633.87774658203</ele>
        <time>2010-08-27T15:56:11Z</time>
      </trkpt>
      <trkpt lat="45.72853" lon="6.30329">
        <ele>645.92230224609</ele>
        <time>2010-08-27T15:56:41Z</time>
      </trkpt>
      <trkpt lat="45.728" lon="6.30357">
        <ele>661.85150146484</ele>
        <time>2010-08-27T15:57:11Z</time>
      </trkpt>
      <trkpt lat="45.72754" lon="6.30382">
        <ele>661.78192138672</ele>
        <time>2010-08-27T15:57:41Z</time>
      </trkpt>
      <trkpt lat="45.72715" lon="6.30416">
        <ele>658.0966796875</ele>
        <time>2010-08-27T15:58:11Z</time>
      </trkpt>
      <trkpt lat="45.7267" lon="6.3042">
        <ele>663.13488769531</ele>
        <time>2010-08-27T15:58:41Z</time>
      </trkpt>
      <trkpt lat="45.72623" lon="6.30423">
        <ele>664.50207519531</ele>
        <time>2010-08-27T15:59:11Z</time>
      </trkpt>
      <trkpt lat="45.72575" lon="6.30426">
        <ele>666.32104492188</ele>
        <time>2010-08-27T15:59:41Z</time>
      </trkpt>
      <trkpt lat="45.72526" lon="6.30442">
        <ele>667.44427490234</ele>
        <time>2010-08-27T16:00:11Z</time>
      </trkpt>
      <trkpt lat="45.72495" lon="6.30393">
        <ele>675.2138671875</ele>
        <time>2010-08-27T16:00:42Z</time>
      </trkpt>
      <trkpt lat="45.72549" lon="6.30354">
        <ele>677.72839355469</ele>
        <time>2010-08-27T16:01:12Z</time>
      </trkpt>
      <trkpt lat="45.72594" lon="6.30289">
        <ele>693.88665771484</ele>
        <time>2010-08-27T16:01:42Z</time>
      </trkpt>
      <trkpt lat="45.72623" lon="6.30225">
        <ele>707.55322265625</ele>
        <time>2010-08-27T16:02:12Z</time>
      </trkpt>
      <trkpt lat="45.72617" lon="6.30153">
        <ele>720.50958251953</ele>
        <time>2010-08-27T16:02:42Z</time>
      </trkpt>
      <trkpt lat="45.7262" lon="6.3007">
        <ele>723.46215820312</ele>
        <time>2010-08-27T16:03:12Z</time>
      </trkpt>
      <trkpt lat="45.72639" lon="6.3">
        <ele>725.99060058594</ele>
        <time>2010-08-27T16:03:42Z</time>
      </trkpt>
      <trkpt lat="45.72627" lon="6.29951">
        <ele>727.74682617188</ele>
        <time>2010-08-27T16:04:12Z</time>
      </trkpt>
      <trkpt lat="45.72623" lon="6.29954">
        <ele>727.66271972656</ele>
        <time>2010-08-27T16:04:42Z</time>
      </trkpt>
      <trkpt lat="45.72623" lon="6.29944">
        <ele>728.00433349609</ele>
        <time>2010-08-27T16:05:12Z</time>
      </trkpt>
      <trkpt lat="45.72618" lon="6.29947">
        <ele>727.92535400391</ele>
        <time>2010-08-27T16:05:44Z</time>
      </trkpt>
      <trkpt lat="45.72601" lon="6.29953">
        <ele>728.07873535156</ele>
        <time>2010-08-27T16:06:14Z</time>
      </trkpt>
      <trkpt lat="45.72598" lon="6.29948">
        <ele>728.35516357422</ele>
        <time>2010-08-27T16:06:56Z</time>
      </trkpt>
      <trkpt lat="45.72598" lon="6.29955">
        <ele>728.10278320312</ele>
        <time>2010-08-27T16:07:35Z</time>
      </trkpt>
      <trkpt lat="45.72591" lon="6.2995">
        <ele>728.51477050781</ele>
        <time>2010-08-27T16:08:05Z</time>
      </trkpt>
      <trkpt lat="45.72532" lon="6.29927">
        <ele>731.16198730469</ele>
        <time>2010-08-27T16:08:35Z</time>
      </trkpt>
      <trkpt lat="45.72406" lon="6.29928">
        <ele>733.15875244141</ele>
        <time>2010-08-27T16:09:06Z</time>
      </trkpt>
      <trkpt lat="45.72311" lon="6.29947">
        <ele>729.96759033203</ele>
        <time>2010-08-27T16:09:36Z</time>
      </trkpt>
      <trkpt lat="45.72226" lon="6.29963">
        <ele>727.99420166016</ele>
        <time>2010-08-27T16:10:06Z</time>
      </trkpt>
      <trkpt lat="45.72155" lon="6.29923">
        <ele>732.31494140625</ele>
        <time>2010-08-27T16:10:36Z</time>
      </trkpt>
      <trkpt lat="45.72104" lon="6.2988">
        <ele>737.18603515625</ele>
        <time>2010-08-27T16:11:06Z</time>
      </trkpt>
      <trkpt lat="45.72028" lon="6.29877">
        <ele>746.83129882812</ele>
        <time>2010-08-27T16:11:36Z</time>
      </trkpt>
      <trkpt lat="45.71948" lon="6.29878">
        <ele>748.64752197266</ele>
        <time>2010-08-27T16:12:06Z</time>
      </trkpt>
      <trkpt lat="45.71875" lon="6.29896">
        <ele>756.24322509766</ele>
        <time>2010-08-27T16:12:36Z</time>
      </trkpt>
      <trkpt lat="45.71812" lon="6.29929">
        <ele>763.82965087891</ele>
        <time>2010-08-27T16:13:06Z</time>
      </trkpt>
      <trkpt lat="45.71776" lon="6.29982">
        <ele>775.00122070312</ele>
        <time>2010-08-27T16:13:36Z</time>
      </trkpt>
      <trkpt lat="45.71771" lon="6.30064">
        <ele>774.62469482422</ele>
        <time>2010-08-27T16:14:06Z</time>
      </trkpt>
      <trkpt lat="45.71749" lon="6.30138">
        <ele>772.13500976562</ele>
        <time>2010-08-27T16:14:36Z</time>
      </trkpt>
      <trkpt lat="45.71689" lon="6.30157">
        <ele>773.71362304688</ele>
        <time>2010-08-27T16:15:06Z</time>
      </trkpt>
      <trkpt lat="45.71622" lon="6.30162">
        <ele>769.39624023438</ele>
        <time>2010-08-27T16:15:36Z</time>
      </trkpt>
      <trkpt lat="45.71509" lon="6.30173">
        <ele>782.91119384766</ele>
        <time>2010-08-27T16:16:06Z</time>
      </trkpt>
      <trkpt lat="45.71429" lon="6.30274">
        <ele>777.49737548828</ele>
        <time>2010-08-27T16:16:36Z</time>
      </trkpt>
      <trkpt lat="45.7131" lon="6.30323">
        <ele>764.43426513672</ele>
        <time>2010-08-27T16:17:06Z</time>
      </trkpt>
      <trkpt lat="45.71119" lon="6.30374">
        <ele>773.84191894531</ele>
        <time>2010-08-27T16:17:36Z</time>
      </trkpt>
      <trkpt lat="45.71011" lon="6.30403">
        <ele>770.41552734375</ele>
        <time>2010-08-27T16:18:06Z</time>
      </trkpt>
      <trkpt lat="45.70887" lon="6.3045">
        <ele>777.67681884766</ele>
        <time>2010-08-27T16:18:36Z</time>
      </trkpt>
      <trkpt lat="45.70786" lon="6.30477">
        <ele>780.99749755859</ele>
        <time>2010-08-27T16:19:06Z</time>
      </trkpt>
      <trkpt lat="45.70807" lon="6.30468">
        <ele>780.95092773438</ele>
        <time>2010-08-27T16:19:36Z</time>
      </trkpt>
      <trkpt lat="45.70729" lon="6.30507">
        <ele>775.95233154297</ele>
        <time>2010-08-27T16:20:06Z</time>
      </trkpt>
      <trkpt lat="45.70523" lon="6.3062">
        <ele>767.68676757812</ele>
        <time>2010-08-27T16:20:36Z</time>
      </trkpt>
      <trkpt lat="45.70492" lon="6.30675">
        <ele>766.1953125</ele>
        <time>2010-08-27T16:21:06Z</time>
      </trkpt>
      <trkpt lat="45.70497" lon="6.30675">
        <ele>765.88623046875</ele>
        <time>2010-08-27T16:22:42Z</time>
      </trkpt>
      <trkpt lat="45.70501" lon="6.30674">
        <ele>765.67687988281</ele>
        <time>2010-08-27T16:23:35Z</time>
      </trkpt>
      <trkpt lat="45.70497" lon="6.30676">
        <ele>765.859375</ele>
        <time>2010-08-27T16:24:44Z</time>
      </trkpt>
      <trkpt lat="45.70503" lon="6.30675">
        <ele>765.60992431641</ele>
        <time>2010-08-27T16:25:14Z</time>
      </trkpt>
      <trkpt lat="45.70498" lon="6.30677">
        <ele>765.74786376953</ele>
        <time>2010-08-27T16:26:49Z</time>
      </trkpt>
      <trkpt lat="45.70485" lon="6.30669">
        <ele>766.94671630859</ele>
        <time>2010-08-27T16:27:19Z</time>
      </trkpt>
      <trkpt lat="45.70491" lon="6.30672">
        <ele>766.39300537109</ele>
        <time>2010-08-27T16:27:49Z</time>
      </trkpt>
      <trkpt lat="45.70495" lon="6.30674">
        <ele>766.02124023438</ele>
        <time>2010-08-27T16:28:23Z</time>
      </trkpt>
      <trkpt lat="45.705" lon="6.30675">
        <ele>765.71276855469</ele>
        <time>2010-08-27T16:29:52Z</time>
      </trkpt>
      <trkpt lat="45.70494" lon="6.30676">
        <ele>766.06329345703</ele>
        <time>2010-08-27T16:30:22Z</time>
      </trkpt>
      <trkpt lat="45.70453" lon="6.30715">
        <ele>766.65814208984</ele>
        <time>2010-08-27T16:30:52Z</time>
      </trkpt>
      <trkpt lat="45.70383" lon="6.3072">
        <ele>768.36218261719</ele>
        <time>2010-08-27T16:31:22Z</time>
      </trkpt>
      <trkpt lat="45.7033" lon="6.30713">
        <ele>770.20666503906</ele>
        <time>2010-08-27T16:31:52Z</time>
      </trkpt>
      <trkpt lat="45.70255" lon="6.30737">
        <ele>773.78234863281</ele>
        <time>2010-08-27T16:32:22Z</time>
      </trkpt>
      <trkpt lat="45.70204" lon="6.3075">
        <ele>778.31170654297</ele>
        <time>2010-08-27T16:32:52Z</time>
      </trkpt>
      <trkpt lat="45.7016" lon="6.30716">
        <ele>781.02813720703</ele>
        <time>2010-08-27T16:33:22Z</time>
      </trkpt>
      <trkpt lat="45.70111" lon="6.30701">
        <ele>783.74951171875</ele>
        <time>2010-08-27T16:33:52Z</time>
      </trkpt>
      <trkpt lat="45.7007" lon="6.30682">
        <ele>787.61199951172</ele>
        <time>2010-08-27T16:34:22Z</time>
      </trkpt>
      <trkpt lat="45.70038" lon="6.30673">
        <ele>788.57983398438</ele>
        <time>2010-08-27T16:34:52Z</time>
      </trkpt>
      <trkpt lat="45.70022" lon="6.3067">
        <ele>789.01654052734</ele>
        <time>2010-08-27T16:35:22Z</time>
      </trkpt>
      <trkpt lat="45.70019" lon="6.30675">
        <ele>788.9267578125</ele>
        <time>2010-08-27T16:35:52Z</time>
      </trkpt>
      <trkpt lat="45.70028" lon="6.30675">
        <ele>788.41162109375</ele>
        <time>2010-08-27T16:36:22Z</time>
      </trkpt>
      <trkpt lat="45.70044" lon="6.30675">
        <ele>788.40130615234</ele>
        <time>2010-08-27T16:36:52Z</time>
      </trkpt>
      <trkpt lat="45.70017" lon="6.30667">
        <ele>789.37133789062</ele>
        <time>2010-08-27T16:37:22Z</time>
      </trkpt>
      <trkpt lat="45.70006" lon="6.3066">
        <ele>789.83349609375</ele>
        <time>2010-08-27T16:37:52Z</time>
      </trkpt>
      <trkpt lat="45.69994" lon="6.30656">
        <ele>790</ele>
        <time>2010-08-27T16:38:22Z</time>
      </trkpt>
      <trkpt lat="45.69992" lon="6.30649">
        <ele>790</ele>
        <time>2010-08-27T16:38:54Z</time>
      </trkpt>
      <trkpt lat="45.69999" lon="6.30649">
        <ele>790</ele>
        <time>2010-08-27T16:39:30Z</time>
      </trkpt>
      <trkpt lat="45.70042" lon="6.3067">
        <ele>788.77209472656</ele>
        <time>2010-08-27T16:40:00Z</time>
      </trkpt>
      <trkpt lat="45.69986" lon="6.30639">
        <ele>790</ele>
        <time>2010-08-27T16:40:30Z</time>
      </trkpt>
      <trkpt lat="45.69971" lon="6.30634">
        <ele>790.63220214844</ele>
        <time>2010-08-27T16:41:00Z</time>
      </trkpt>
      <trkpt lat="45.70029" lon="6.30663">
        <ele>789.125</ele>
        <time>2010-08-27T16:41:30Z</time>
      </trkpt>
      <trkpt lat="45.70039" lon="6.30667">
        <ele>788.96435546875</ele>
        <time>2010-08-27T16:42:01Z</time>
      </trkpt>
      <trkpt lat="45.70002" lon="6.30647">
        <ele>789.97833251953</ele>
        <time>2010-08-27T16:42:31Z</time>
      </trkpt>
      <trkpt lat="45.69966" lon="6.30629">
        <ele>791.421875</ele>
        <time>2010-08-27T16:43:01Z</time>
      </trkpt>
      <trkpt lat="45.69951" lon="6.30629">
        <ele>791.40124511719</ele>
        <time>2010-08-27T16:43:31Z</time>
      </trkpt>
      <trkpt lat="45.69917" lon="6.30624">
        <ele>794.05621337891</ele>
        <time>2010-08-27T16:44:01Z</time>
      </trkpt>
      <trkpt lat="45.69861" lon="6.30591">
        <ele>798.47381591797</ele>
        <time>2010-08-27T16:44:31Z</time>
      </trkpt>
      <trkpt lat="45.69835" lon="6.30577">
        <ele>799.24658203125</ele>
        <time>2010-08-27T16:45:01Z</time>
      </trkpt>
      <trkpt lat="45.69808" lon="6.30565">
        <ele>799.97186279297</ele>
        <time>2010-08-27T16:45:31Z</time>
      </trkpt>
      <trkpt lat="45.69756" lon="6.30554">
        <ele>800.95336914062</ele>
        <time>2010-08-27T16:46:01Z</time>
      </trkpt>
      <trkpt lat="45.69698" lon="6.30522">
        <ele>806.26739501953</ele>
        <time>2010-08-27T16:46:31Z</time>
      </trkpt>
      <trkpt lat="45.69645" lon="6.30497">
        <ele>809.81951904297</ele>
        <time>2010-08-27T16:47:01Z</time>
      </trkpt>
      <trkpt lat="45.69577" lon="6.30471">
        <ele>811.4296875</ele>
        <time>2010-08-27T16:47:31Z</time>
      </trkpt>
      <trkpt lat="45.69533" lon="6.30467">
        <ele>819.37139892578</ele>
        <time>2010-08-27T16:48:01Z</time>
      </trkpt>
      <trkpt lat="45.695" lon="6.30458">
        <ele>821.51251220703</ele>
        <time>2010-08-27T16:48:31Z</time>
      </trkpt>
      <trkpt lat="45.69467" lon="6.30526">
        <ele>820.17150878906</ele>
        <time>2010-08-27T16:49:01Z</time>
      </trkpt>
      <trkpt lat="45.69426" lon="6.30542">
        <ele>822.87658691406</ele>
        <time>2010-08-27T16:49:31Z</time>
      </trkpt>
      <trkpt lat="45.69374" lon="6.30551">
        <ele>825.9140625</ele>
        <time>2010-08-27T16:50:01Z</time>
      </trkpt>
      <trkpt lat="45.6931" lon="6.3055">
        <ele>829.64819335938</ele>
        <time>2010-08-27T16:50:31Z</time>
      </trkpt>
      <trkpt lat="45.69291" lon="6.30592">
        <ele>830.39135742188</ele>
        <time>2010-08-27T16:51:01Z</time>
      </trkpt>
      <trkpt lat="45.69248" lon="6.30543">
        <ele>835.19354248047</ele>
        <time>2010-08-27T16:51:31Z</time>
      </trkpt>
      <trkpt lat="45.69217" lon="6.30509">
        <ele>839.42022705078</ele>
        <time>2010-08-27T16:52:01Z</time>
      </trkpt>
      <trkpt lat="45.69187" lon="6.30456">
        <ele>848.21502685547</ele>
        <time>2010-08-27T16:52:31Z</time>
      </trkpt>
      <trkpt lat="45.69164" lon="6.30425">
        <ele>853.55090332031</ele>
        <time>2010-08-27T16:53:01Z</time>
      </trkpt>
      <trkpt lat="45.69127" lon="6.3041">
        <ele>855.50378417969</ele>
        <time>2010-08-27T16:53:31Z</time>
      </trkpt>
      <trkpt lat="45.69094" lon="6.30396">
        <ele>861.23583984375</ele>
        <time>2010-08-27T16:54:01Z</time>
      </trkpt>
      <trkpt lat="45.6907" lon="6.30396">
        <ele>864.79919433594</ele>
        <time>2010-08-27T16:54:31Z</time>
      </trkpt>
      <trkpt lat="45.69027" lon="6.30375">
        <ele>870.96954345703</ele>
        <time>2010-08-27T16:55:01Z</time>
      </trkpt>
      <trkpt lat="45.69007" lon="6.30337">
        <ele>875.81042480469</ele>
        <time>2010-08-27T16:55:31Z</time>
      </trkpt>
      <trkpt lat="45.68992" lon="6.303">
        <ele>880.48590087891</ele>
        <time>2010-08-27T16:56:01Z</time>
      </trkpt>
      <trkpt lat="45.68974" lon="6.30277">
        <ele>884.14636230469</ele>
        <time>2010-08-27T16:56:31Z</time>
      </trkpt>
      <trkpt lat="45.68905" lon="6.30269">
        <ele>890.41186523438</ele>
        <time>2010-08-27T16:57:01Z</time>
      </trkpt>
      <trkpt lat="45.68853" lon="6.30306">
        <ele>895.53564453125</ele>
        <time>2010-08-27T16:57:31Z</time>
      </trkpt>
      <trkpt lat="45.68787" lon="6.30342">
        <ele>897.50744628906</ele>
        <time>2010-08-27T16:58:01Z</time>
      </trkpt>
      <trkpt lat="45.6874" lon="6.30373">
        <ele>901.42944335938</ele>
        <time>2010-08-27T16:58:31Z</time>
      </trkpt>
      <trkpt lat="45.6878" lon="6.30345">
        <ele>898.04345703125</ele>
        <time>2010-08-27T16:59:01Z</time>
      </trkpt>
      <trkpt lat="45.68909" lon="6.30268">
        <ele>889.83221435547</ele>
        <time>2010-08-27T16:59:31Z</time>
      </trkpt>
      <trkpt lat="45.68951" lon="6.30245">
        <ele>890.83929443359</ele>
        <time>2010-08-27T17:00:01Z</time>
      </trkpt>
      <trkpt lat="45.68941" lon="6.3022">
        <ele>898.52423095703</ele>
        <time>2010-08-27T17:00:31Z</time>
      </trkpt>
      <trkpt lat="45.68903" lon="6.30234">
        <ele>903.11779785156</ele>
        <time>2010-08-27T17:01:01Z</time>
      </trkpt>
      <trkpt lat="45.68853" lon="6.30249">
        <ele>906.87524414062</ele>
        <time>2010-08-27T17:01:31Z</time>
      </trkpt>
      <trkpt lat="45.68809" lon="6.30257">
        <ele>910.55065917969</ele>
        <time>2010-08-27T17:02:01Z</time>
      </trkpt>
      <trkpt lat="45.68758" lon="6.30278">
        <ele>915.38037109375</ele>
        <time>2010-08-27T17:02:31Z</time>
      </trkpt>
      <trkpt lat="45.6874" lon="6.30276">
        <ele>920.57135009766</ele>
        <time>2010-08-27T17:03:01Z</time>
      </trkpt>
      <trkpt lat="45.68758" lon="6.3024">
        <ele>925.48303222656</ele>
        <time>2010-08-27T17:03:31Z</time>
      </trkpt>
      <trkpt lat="45.68807" lon="6.30222">
        <ele>921.04449462891</ele>
        <time>2010-08-27T17:04:01Z</time>
      </trkpt>
      <trkpt lat="45.68848" lon="6.30189">
        <ele>932.02795410156</ele>
        <time>2010-08-27T17:04:31Z</time>
      </trkpt>
      <trkpt lat="45.6885" lon="6.30163">
        <ele>942.10388183594</ele>
        <time>2010-08-27T17:05:01Z</time>
      </trkpt>
      <trkpt lat="45.68817" lon="6.30186">
        <ele>934.13525390625</ele>
        <time>2010-08-27T17:05:31Z</time>
      </trkpt>
      <trkpt lat="45.68773" lon="6.30176">
        <ele>943.26434326172</ele>
        <time>2010-08-27T17:06:01Z</time>
      </trkpt>
      <trkpt lat="45.68709" lon="6.30171">
        <ele>960.99926757812</ele>
        <time>2010-08-27T17:06:31Z</time>
      </trkpt>
      <trkpt lat="45.68687" lon="6.302">
        <ele>956.41345214844</ele>
        <time>2010-08-27T17:07:01Z</time>
      </trkpt>
      <trkpt lat="45.68642" lon="6.30226">
        <ele>956.07080078125</ele>
        <time>2010-08-27T17:07:31Z</time>
      </trkpt>
      <trkpt lat="45.68613" lon="6.30242">
        <ele>955.00646972656</ele>
        <time>2010-08-27T17:08:01Z</time>
      </trkpt>
      <trkpt lat="45.68575" lon="6.30245">
        <ele>959.92498779297</ele>
        <time>2010-08-27T17:08:31Z</time>
      </trkpt>
      <trkpt lat="45.68528" lon="6.30238">
        <ele>965.97515869141</ele>
        <time>2010-08-27T17:09:01Z</time>
      </trkpt>
      <trkpt lat="45.68502" lon="6.30223">
        <ele>977.08410644531</ele>
        <time>2010-08-27T17:09:31Z</time>
      </trkpt>
      <trkpt lat="45.68464" lon="6.30216">
        <ele>974.79156494141</ele>
        <time>2010-08-27T17:10:01Z</time>
      </trkpt>
      <trkpt lat="45.68425" lon="6.30204">
        <ele>974.77185058594</ele>
        <time>2010-08-27T17:10:31Z</time>
      </trkpt>
      <trkpt lat="45.68429" lon="6.302">
        <ele>978.22418212891</ele>
        <time>2010-08-27T17:11:03Z</time>
      </trkpt>
      <trkpt lat="45.6848" lon="6.30205">
        <ele>983.22802734375</ele>
        <time>2010-08-27T17:11:33Z</time>
      </trkpt>
      <trkpt lat="45.68537" lon="6.30187">
        <ele>990.81958007812</ele>
        <time>2010-08-27T17:12:03Z</time>
      </trkpt>
      <trkpt lat="45.68582" lon="6.30154">
        <ele>999.8642578125</ele>
        <time>2010-08-27T17:12:33Z</time>
      </trkpt>
      <trkpt lat="45.68621" lon="6.30101">
        <ele>1016.3676757812</ele>
        <time>2010-08-27T17:13:03Z</time>
      </trkpt>
      <trkpt lat="45.68658" lon="6.30057">
        <ele>1023.8041992188</ele>
        <time>2010-08-27T17:13:33Z</time>
      </trkpt>
      <trkpt lat="45.68708" lon="6.30054">
        <ele>1009.7939453125</ele>
        <time>2010-08-27T17:14:03Z</time>
      </trkpt>
      <trkpt lat="45.68747" lon="6.30017">
        <ele>1023.1365966797</ele>
        <time>2010-08-27T17:14:33Z</time>
      </trkpt>
      <trkpt lat="45.68783" lon="6.29981">
        <ele>1033.2482910156</ele>
        <time>2010-08-27T17:15:03Z</time>
      </trkpt>
      <trkpt lat="45.68813" lon="6.29923">
        <ele>1048.4409179688</ele>
        <time>2010-08-27T17:15:33Z</time>
      </trkpt>
      <trkpt lat="45.6883" lon="6.29887">
        <ele>1049.7877197266</ele>
        <time>2010-08-27T17:16:03Z</time>
      </trkpt>
      <trkpt lat="45.68832" lon="6.29894">
        <ele>1046.2531738281</ele>
        <time>2010-08-27T17:17:03Z</time>
      </trkpt>
      <trkpt lat="45.68836" lon="6.29897">
        <ele>1042.3099365234</ele>
        <time>2010-08-27T17:17:37Z</time>
      </trkpt>
      <trkpt lat="45.68844" lon="6.299">
        <ele>1036.2833251953</ele>
        <time>2010-08-27T17:18:07Z</time>
      </trkpt>
      <trkpt lat="45.68856" lon="6.29886">
        <ele>1033.4343261719</ele>
        <time>2010-08-27T17:18:37Z</time>
      </trkpt>
      <trkpt lat="45.68847" lon="6.29882">
        <ele>1040.5224609375</ele>
        <time>2010-08-27T17:19:07Z</time>
      </trkpt>
      <trkpt lat="45.68844" lon="6.29919">
        <ele>1029.3619384766</ele>
        <time>2010-08-27T17:19:37Z</time>
      </trkpt>
      <trkpt lat="45.68836" lon="6.29947">
        <ele>1024.3974609375</ele>
        <time>2010-08-27T17:20:07Z</time>
      </trkpt>
      <trkpt lat="45.68841" lon="6.29947">
        <ele>1021.427734375</ele>
        <time>2010-08-27T17:20:37Z</time>
      </trkpt>
      <trkpt lat="45.6885" lon="6.29919">
        <ele>1026.3878173828</ele>
        <time>2010-08-27T17:21:07Z</time>
      </trkpt>
      <trkpt lat="45.68849" lon="6.29909">
        <ele>1030.0679931641</ele>
        <time>2010-08-27T17:21:37Z</time>
      </trkpt>
      <trkpt lat="45.68865" lon="6.29922">
        <ele>1016.7290649414</ele>
        <time>2010-08-27T17:22:07Z</time>
      </trkpt>
      <trkpt lat="45.68866" lon="6.29934">
        <ele>1012.8389892578</ele>
        <time>2010-08-27T17:22:37Z</time>
      </trkpt>
      <trkpt lat="45.68866" lon="6.29961">
        <ele>1003.9607543945</ele>
        <time>2010-08-27T17:23:07Z</time>
      </trkpt>
      <trkpt lat="45.68885" lon="6.29938">
        <ele>1005.6427001953</ele>
        <time>2010-08-27T17:23:37Z</time>
      </trkpt>
      <trkpt lat="45.68897" lon="6.29934">
        <ele>1003.1786499023</ele>
        <time>2010-08-27T17:24:07Z</time>
      </trkpt>
      <trkpt lat="45.68911" lon="6.29936">
        <ele>999.26135253906</ele>
        <time>2010-08-27T17:24:37Z</time>
      </trkpt>
      <trkpt lat="45.68893" lon="6.29995">
        <ele>985.25445556641</ele>
        <time>2010-08-27T17:25:07Z</time>
      </trkpt>
      <trkpt lat="45.68894" lon="6.30001">
        <ele>982.82281494141</ele>
        <time>2010-08-27T17:25:37Z</time>
      </trkpt>
      <trkpt lat="45.68904" lon="6.29997">
        <ele>980.49591064453</ele>
        <time>2010-08-27T17:26:07Z</time>
      </trkpt>
      <trkpt lat="45.68894" lon="6.30012">
        <ele>978.34765625</ele>
        <time>2010-08-27T17:26:37Z</time>
      </trkpt>
      <trkpt lat="45.68901" lon="6.30033">
        <ele>967.18109130859</ele>
        <time>2010-08-27T17:27:07Z</time>
      </trkpt>
      <trkpt lat="45.68896" lon="6.30038">
        <ele>966.73956298828</ele>
        <time>2010-08-27T17:27:37Z</time>
      </trkpt>
      <trkpt lat="45.68913" lon="6.30045">
        <ele>958.859375</ele>
        <time>2010-08-27T17:28:07Z</time>
      </trkpt>
      <trkpt lat="45.68884" lon="6.30087">
        <ele>955.67150878906</ele>
        <time>2010-08-27T17:28:37Z</time>
      </trkpt>
      <trkpt lat="45.68872" lon="6.30147">
        <ele>943.26184082031</ele>
        <time>2010-08-27T17:29:07Z</time>
      </trkpt>
      <trkpt lat="45.68857" lon="6.30147">
        <ele>947.01293945312</ele>
        <time>2010-08-27T17:29:37Z</time>
      </trkpt>
      <trkpt lat="45.68852" lon="6.30153">
        <ele>945.58618164062</ele>
        <time>2010-08-27T17:30:07Z</time>
      </trkpt>
      <trkpt lat="45.68813" lon="6.3018">
        <ele>936.59521484375</ele>
        <time>2010-08-27T17:30:37Z</time>
      </trkpt>
      <trkpt lat="45.68784" lon="6.30184">
        <ele>937.60827636719</ele>
        <time>2010-08-27T17:31:07Z</time>
      </trkpt>
      <trkpt lat="45.68757" lon="6.30175">
        <ele>948.86126708984</ele>
        <time>2010-08-27T17:31:37Z</time>
      </trkpt>
      <trkpt lat="45.68734" lon="6.30169">
        <ele>957.02362060547</ele>
        <time>2010-08-27T17:32:07Z</time>
      </trkpt>
      <trkpt lat="45.68727" lon="6.30171">
        <ele>957.86260986328</ele>
        <time>2010-08-27T17:32:37Z</time>
      </trkpt>
      <trkpt lat="45.68687" lon="6.30177">
        <ele>963.03186035156</ele>
        <time>2010-08-27T17:33:07Z</time>
      </trkpt>
      <trkpt lat="45.68651" lon="6.30216">
        <ele>957.58782958984</ele>
        <time>2010-08-27T17:33:37Z</time>
      </trkpt>
      <trkpt lat="45.68615" lon="6.30237">
        <ele>956.94165039062</ele>
        <time>2010-08-27T17:34:07Z</time>
      </trkpt>
      <trkpt lat="45.68576" lon="6.30245">
        <ele>960.18719482422</ele>
        <time>2010-08-27T17:34:37Z</time>
      </trkpt>
      <trkpt lat="45.68541" lon="6.30246">
        <ele>961.01287841797</ele>
        <time>2010-08-27T17:35:07Z</time>
      </trkpt>
      <trkpt lat="45.68512" lon="6.30231">
        <ele>971.07348632812</ele>
        <time>2010-08-27T17:35:37Z</time>
      </trkpt>
      <trkpt lat="45.68476" lon="6.30226">
        <ele>971.71234130859</ele>
        <time>2010-08-27T17:36:07Z</time>
      </trkpt>
      <trkpt lat="45.68441" lon="6.30216">
        <ele>971.72985839844</ele>
        <time>2010-08-27T17:36:37Z</time>
      </trkpt>
      <trkpt lat="45.68413" lon="6.30205">
        <ele>971.94714355469</ele>
        <time>2010-08-27T17:37:07Z</time>
      </trkpt>
      <trkpt lat="45.68412" lon="6.30211">
        <ele>967.68402099609</ele>
        <time>2010-08-27T17:38:17Z</time>
      </trkpt>
      <trkpt lat="45.68413" lon="6.30205">
        <ele>971.77502441406</ele>
        <time>2010-08-27T17:39:12Z</time>
      </trkpt>
      <trkpt lat="45.68407" lon="6.30207">
        <ele>969.00250244141</ele>
        <time>2010-08-27T17:39:42Z</time>
      </trkpt>
      <trkpt lat="45.68402" lon="6.30214">
        <ele>963.84515380859</ele>
        <time>2010-08-27T17:40:12Z</time>
      </trkpt>
      <trkpt lat="45.68402" lon="6.30205">
        <ele>969.37066650391</ele>
        <time>2010-08-27T17:40:42Z</time>
      </trkpt>
      <trkpt lat="45.68367" lon="6.30188">
        <ele>976.08911132812</ele>
        <time>2010-08-27T17:41:12Z</time>
      </trkpt>
      <trkpt lat="45.68351" lon="6.30171">
        <ele>986.3115234375</ele>
        <time>2010-08-27T17:41:42Z</time>
      </trkpt>
      <trkpt lat="45.68338" lon="6.30174">
        <ele>984.72528076172</ele>
        <time>2010-08-27T17:42:12Z</time>
      </trkpt>
      <trkpt lat="45.68325" lon="6.30163">
        <ele>990.16290283203</ele>
        <time>2010-08-27T17:42:42Z</time>
      </trkpt>
      <trkpt lat="45.68313" lon="6.30154">
        <ele>992.60272216797</ele>
        <time>2010-08-27T17:43:12Z</time>
      </trkpt>
      <trkpt lat="45.68306" lon="6.30137">
        <ele>997.73150634766</ele>
        <time>2010-08-27T17:43:42Z</time>
      </trkpt>
      <trkpt lat="45.68298" lon="6.30109">
        <ele>1011.9691162109</ele>
        <time>2010-08-27T17:44:12Z</time>
      </trkpt>
      <trkpt lat="45.68282" lon="6.30102">
        <ele>1016.3513793945</ele>
        <time>2010-08-27T17:44:42Z</time>
      </trkpt>
      <trkpt lat="45.6827" lon="6.30071">
        <ele>1030.7176513672</ele>
        <time>2010-08-27T17:45:12Z</time>
      </trkpt>
      <trkpt lat="45.68261" lon="6.30074">
        <ele>1032.3571777344</ele>
        <time>2010-08-27T17:45:42Z</time>
      </trkpt>
      <trkpt lat="45.68261" lon="6.30088">
        <ele>1027.0288085938</ele>
        <time>2010-08-27T17:46:12Z</time>
      </trkpt>
      <trkpt lat="45.68262" lon="6.30064">
        <ele>1035.8095703125</ele>
        <time>2010-08-27T17:46:42Z</time>
      </trkpt>
      <trkpt lat="45.68256" lon="6.30072">
        <ele>1034.7243652344</ele>
        <time>2010-08-27T17:47:12Z</time>
      </trkpt>
      <trkpt lat="45.6826" lon="6.30078">
        <ele>1031.2802734375</ele>
        <time>2010-08-27T17:47:42Z</time>
      </trkpt>
      <trkpt lat="45.68222" lon="6.30076">
        <ele>1043.7406005859</ele>
        <time>2010-08-27T17:48:12Z</time>
      </trkpt>
      <trkpt lat="45.68177" lon="6.30098">
        <ele>1041.3380126953</ele>
        <time>2010-08-27T17:48:42Z</time>
      </trkpt>
      <trkpt lat="45.68141" lon="6.30116">
        <ele>1037.7001953125</ele>
        <time>2010-08-27T17:49:12Z</time>
      </trkpt>
      <trkpt lat="45.68121" lon="6.30122">
        <ele>1038.7021484375</ele>
        <time>2010-08-27T17:49:42Z</time>
      </trkpt>
      <trkpt lat="45.68104" lon="6.30118">
        <ele>1043.5870361328</ele>
        <time>2010-08-27T17:50:12Z</time>
      </trkpt>
      <trkpt lat="45.68087" lon="6.30101">
        <ele>1051.7438964844</ele>
        <time>2010-08-27T17:50:42Z</time>
      </trkpt>
      <trkpt lat="45.68084" lon="6.30096">
        <ele>1053.8778076172</ele>
        <time>2010-08-27T17:51:20Z</time>
      </trkpt>
      <trkpt lat="45.68045" lon="6.30107">
        <ele>1041.9307861328</ele>
        <time>2010-08-27T17:51:50Z</time>
      </trkpt>
      <trkpt lat="45.68004" lon="6.30084">
        <ele>1038.9757080078</ele>
        <time>2010-08-27T17:52:20Z</time>
      </trkpt>
      <trkpt lat="45.67984" lon="6.30092">
        <ele>1041.7222900391</ele>
        <time>2010-08-27T17:52:50Z</time>
      </trkpt>
      <trkpt lat="45.67958" lon="6.30119">
        <ele>1041.2897949219</ele>
        <time>2010-08-27T17:53:20Z</time>
      </trkpt>
      <trkpt lat="45.67953" lon="6.30119">
        <ele>1043.2299804688</ele>
        <time>2010-08-27T17:53:53Z</time>
      </trkpt>
      <trkpt lat="45.67911" lon="6.30183">
        <ele>1018.3364868164</ele>
        <time>2010-08-27T17:54:23Z</time>
      </trkpt>
      <trkpt lat="45.67919" lon="6.30224">
        <ele>997.09741210938</ele>
        <time>2010-08-27T17:54:53Z</time>
      </trkpt>
      <trkpt lat="45.67896" lon="6.30239">
        <ele>992.41632080078</ele>
        <time>2010-08-27T17:55:23Z</time>
      </trkpt>
      <trkpt lat="45.67881" lon="6.30238">
        <ele>992.01519775391</ele>
        <time>2010-08-27T17:55:53Z</time>
      </trkpt>
      <trkpt lat="45.67789" lon="6.3028">
        <ele>980.53851318359</ele>
        <time>2010-08-27T17:56:23Z</time>
      </trkpt>
      <trkpt lat="45.67704" lon="6.30361">
        <ele>982.13763427734</ele>
        <time>2010-08-27T17:56:53Z</time>
      </trkpt>
      <trkpt lat="45.67592" lon="6.30395">
        <ele>974.04223632812</ele>
        <time>2010-08-27T17:57:23Z</time>
      </trkpt>
      <trkpt lat="45.6755" lon="6.30332">
        <ele>973.54058837891</ele>
        <time>2010-08-27T17:57:53Z</time>
      </trkpt>
      <trkpt lat="45.6751" lon="6.30289">
        <ele>977.78741455078</ele>
        <time>2010-08-27T17:58:23Z</time>
      </trkpt>
      <trkpt lat="45.67462" lon="6.30283">
        <ele>973.33178710938</ele>
        <time>2010-08-27T17:58:53Z</time>
      </trkpt>
      <trkpt lat="45.67408" lon="6.3024">
        <ele>975.92657470703</ele>
        <time>2010-08-27T17:59:23Z</time>
      </trkpt>
      <trkpt lat="45.67324" lon="6.30239">
        <ele>985.55889892578</ele>
        <time>2010-08-27T17:59:53Z</time>
      </trkpt>
      <trkpt lat="45.67245" lon="6.30282">
        <ele>981.68176269531</ele>
        <time>2010-08-27T18:00:23Z</time>
      </trkpt>
      <trkpt lat="45.67157" lon="6.30304">
        <ele>970.7119140625</ele>
        <time>2010-08-27T18:00:53Z</time>
      </trkpt>
      <trkpt lat="45.67085" lon="6.30411">
        <ele>958.94830322266</ele>
        <time>2010-08-27T18:01:23Z</time>
      </trkpt>
      <trkpt lat="45.67072" lon="6.30467">
        <ele>945.55889892578</ele>
        <time>2010-08-27T18:01:53Z</time>
      </trkpt>
      <trkpt lat="45.67048" lon="6.30541">
        <ele>930.37701416016</ele>
        <time>2010-08-27T18:02:23Z</time>
      </trkpt>
      <trkpt lat="45.67036" lon="6.30603">
        <ele>918.95025634766</ele>
        <time>2010-08-27T18:02:53Z</time>
      </trkpt>
      <trkpt lat="45.6701" lon="6.30715">
        <ele>907.97924804688</ele>
        <time>2010-08-27T18:03:23Z</time>
      </trkpt>
      <trkpt lat="45.66998" lon="6.30723">
        <ele>906.62585449219</ele>
        <time>2010-08-27T18:03:53Z</time>
      </trkpt>
      <trkpt lat="45.67" lon="6.30729">
        <ele>906.96868896484</ele>
        <time>2010-08-27T18:04:23Z</time>
      </trkpt>
      <trkpt lat="45.67005" lon="6.30733">
        <ele>907.55700683594</ele>
        <time>2010-08-27T18:04:53Z</time>
      </trkpt>
      <trkpt lat="45.67002" lon="6.30739">
        <ele>907.18621826172</ele>
        <time>2010-08-27T18:05:51Z</time>
      </trkpt>
      <trkpt lat="45.67008" lon="6.30841">
        <ele>908.56353759766</ele>
        <time>2010-08-27T18:06:21Z</time>
      </trkpt>
      <trkpt lat="45.67004" lon="6.30927">
        <ele>913.36444091797</ele>
        <time>2010-08-27T18:06:51Z</time>
      </trkpt>
      <trkpt lat="45.67059" lon="6.30943">
        <ele>927.89868164062</ele>
        <time>2010-08-27T18:07:21Z</time>
      </trkpt>
      <trkpt lat="45.67102" lon="6.30951">
        <ele>931.49310302734</ele>
        <time>2010-08-27T18:07:51Z</time>
      </trkpt>
      <trkpt lat="45.67157" lon="6.30955">
        <ele>929.04211425781</ele>
        <time>2010-08-27T18:08:21Z</time>
      </trkpt>
      <trkpt lat="45.67208" lon="6.30953">
        <ele>928.13275146484</ele>
        <time>2010-08-27T18:08:51Z</time>
      </trkpt>
      <trkpt lat="45.67265" lon="6.30975">
        <ele>941.35723876953</ele>
        <time>2010-08-27T18:09:21Z</time>
      </trkpt>
      <trkpt lat="45.67316" lon="6.31">
        <ele>943.91015625</ele>
        <time>2010-08-27T18:09:51Z</time>
      </trkpt>
      <trkpt lat="45.67362" lon="6.31037">
        <ele>947.46105957031</ele>
        <time>2010-08-27T18:10:21Z</time>
      </trkpt>
      <trkpt lat="45.67385" lon="6.3111">
        <ele>956.47326660156</ele>
        <time>2010-08-27T18:10:51Z</time>
      </trkpt>
      <trkpt lat="45.67388" lon="6.31188">
        <ele>971.00018310547</ele>
        <time>2010-08-27T18:11:21Z</time>
      </trkpt>
      <trkpt lat="45.67414" lon="6.31229">
        <ele>967.52838134766</ele>
        <time>2010-08-27T18:11:51Z</time>
      </trkpt>
      <trkpt lat="45.6749" lon="6.31322">
        <ele>954.03112792969</ele>
        <time>2010-08-27T18:12:21Z</time>
      </trkpt>
      <trkpt lat="45.67503" lon="6.31469">
        <ele>966.70593261719</ele>
        <time>2010-08-27T18:12:51Z</time>
      </trkpt>
      <trkpt lat="45.67485" lon="6.31544">
        <ele>962.06762695312</ele>
        <time>2010-08-27T18:13:21Z</time>
      </trkpt>
      <trkpt lat="45.67479" lon="6.31542">
        <ele>964.01678466797</ele>
        <time>2010-08-27T18:13:51Z</time>
      </trkpt>
      <trkpt lat="45.67476" lon="6.31576">
        <ele>958.65747070312</ele>
        <time>2010-08-27T18:14:21Z</time>
      </trkpt>
      <trkpt lat="45.67444" lon="6.31698">
        <ele>942.01501464844</ele>
        <time>2010-08-27T18:14:51Z</time>
      </trkpt>
      <trkpt lat="45.6747" lon="6.31839">
        <ele>904.73712158203</ele>
        <time>2010-08-27T18:15:21Z</time>
      </trkpt>
      <trkpt lat="45.67477" lon="6.31954">
        <ele>886.43908691406</ele>
        <time>2010-08-27T18:15:51Z</time>
      </trkpt>
      <trkpt lat="45.6747" lon="6.32052">
        <ele>870.01196289062</ele>
        <time>2010-08-27T18:16:21Z</time>
      </trkpt>
      <trkpt lat="45.67538" lon="6.32243">
        <ele>841.09301757812</ele>
        <time>2010-08-27T18:16:51Z</time>
      </trkpt>
      <trkpt lat="45.67638" lon="6.32402">
        <ele>830.26483154297</ele>
        <time>2010-08-27T18:17:21Z</time>
      </trkpt>
      <trkpt lat="45.67694" lon="6.32501">
        <ele>822.83764648438</ele>
        <time>2010-08-27T18:17:51Z</time>
      </trkpt>
      <trkpt lat="45.67764" lon="6.32643">
        <ele>784.33422851562</ele>
        <time>2010-08-27T18:18:21Z</time>
      </trkpt>
      <trkpt lat="45.67802" lon="6.32735">
        <ele>771.57757568359</ele>
        <time>2010-08-27T18:18:51Z</time>
      </trkpt>
      <trkpt lat="45.67806" lon="6.32731">
        <ele>776.001953125</ele>
        <time>2010-08-27T18:19:44Z</time>
      </trkpt>
      <trkpt lat="45.67802" lon="6.32727">
        <ele>775.29022216797</ele>
        <time>2010-08-27T18:20:15Z</time>
      </trkpt>
      <trkpt lat="45.67798" lon="6.32725">
        <ele>773.66986083984</ele>
        <time>2010-08-27T18:20:56Z</time>
      </trkpt>
      <trkpt lat="45.67804" lon="6.32735">
        <ele>773.3994140625</ele>
        <time>2010-08-27T18:21:26Z</time>
      </trkpt>
      <trkpt lat="45.67825" lon="6.32794">
        <ele>756.09802246094</ele>
        <time>2010-08-27T18:21:56Z</time>
      </trkpt>
      <trkpt lat="45.67838" lon="6.32823">
        <ele>749.63592529297</ele>
        <time>2010-08-27T18:22:26Z</time>
      </trkpt>
      <trkpt lat="45.67849" lon="6.32857">
        <ele>739.62554931641</ele>
        <time>2010-08-27T18:22:56Z</time>
      </trkpt>
      <trkpt lat="45.67845" lon="6.32862">
        <ele>736.37048339844</ele>
        <time>2010-08-27T18:24:14Z</time>
      </trkpt>
      <trkpt lat="45.67834" lon="6.3285">
        <ele>736.11804199219</ele>
        <time>2010-08-27T18:24:44Z</time>
      </trkpt>
      <trkpt lat="45.67829" lon="6.3285">
        <ele>733.69848632812</ele>
        <time>2010-08-27T18:25:14Z</time>
      </trkpt>
      <trkpt lat="45.67827" lon="6.32856">
        <ele>730.21032714844</ele>
        <time>2010-08-27T18:27:56Z</time>
      </trkpt>
      <trkpt lat="45.6783" lon="6.32849">
        <ele>734.48815917969</ele>
        <time>2010-08-27T18:28:26Z</time>
      </trkpt>
      <trkpt lat="45.67826" lon="6.32852">
        <ele>731.37078857422</ele>
        <time>2010-08-27T18:29:07Z</time>
      </trkpt>
      <trkpt lat="45.67823" lon="6.32859">
        <ele>727.12048339844</ele>
        <time>2010-08-27T18:30:23Z</time>
      </trkpt>
      <trkpt lat="45.67834" lon="6.32845">
        <ele>738.41784667969</ele>
        <time>2010-08-27T18:30:53Z</time>
      </trkpt>
      <trkpt lat="45.67824" lon="6.32847">
        <ele>732.94323730469</ele>
        <time>2010-08-27T18:31:23Z</time>
      </trkpt>
      <trkpt lat="45.67826" lon="6.32853">
        <ele>730.85583496094</ele>
        <time>2010-08-27T18:31:53Z</time>
      </trkpt>
      <trkpt lat="45.6783" lon="6.3285">
        <ele>734.19976806641</ele>
        <time>2010-08-27T18:32:37Z</time>
      </trkpt>
      <trkpt lat="45.67834" lon="6.32847">
        <ele>737.26953125</ele>
        <time>2010-08-27T18:34:19Z</time>
      </trkpt>
      <trkpt lat="45.67824" lon="6.32844">
        <ele>734.17919921875</ele>
        <time>2010-08-27T18:34:49Z</time>
      </trkpt>
      <trkpt lat="45.6782" lon="6.32847">
        <ele>730.65667724609</ele>
        <time>2010-08-27T18:35:19Z</time>
      </trkpt>
      <trkpt lat="45.67818" lon="6.32853">
        <ele>727.18908691406</ele>
        <time>2010-08-27T18:35:52Z</time>
      </trkpt>
      <trkpt lat="45.67842" lon="6.32907">
        <ele>716.46887207031</ele>
        <time>2010-08-27T18:36:22Z</time>
      </trkpt>
      <trkpt lat="45.67876" lon="6.32969">
        <ele>706.95825195312</ele>
        <time>2010-08-27T18:36:52Z</time>
      </trkpt>
      <trkpt lat="45.67891" lon="6.33011">
        <ele>698.0166015625</ele>
        <time>2010-08-27T18:37:22Z</time>
      </trkpt>
      <trkpt lat="45.67888" lon="6.33023">
        <ele>690.96813964844</ele>
        <time>2010-08-27T18:37:52Z</time>
      </trkpt>
      <trkpt lat="45.67893" lon="6.33023">
        <ele>693.39587402344</ele>
        <time>2010-08-27T18:38:27Z</time>
      </trkpt>
      <trkpt lat="45.67888" lon="6.33028">
        <ele>688.71966552734</ele>
        <time>2010-08-27T18:38:57Z</time>
      </trkpt>
      <trkpt lat="45.67896" lon="6.33044">
        <ele>684.65393066406</ele>
        <time>2010-08-27T18:39:27Z</time>
      </trkpt>
      <trkpt lat="45.67899" lon="6.33049">
        <ele>684.88226318359</ele>
        <time>2010-08-27T18:40:49Z</time>
      </trkpt>
      <trkpt lat="45.67905" lon="6.33057">
        <ele>684.87487792969</ele>
        <time>2010-08-27T18:41:19Z</time>
      </trkpt>
      <trkpt lat="45.67905" lon="6.3305">
        <ele>688.00653076172</ele>
        <time>2010-08-27T18:41:49Z</time>
      </trkpt>
      <trkpt lat="45.67901" lon="6.33053">
        <ele>683.99853515625</ele>
        <time>2010-08-27T18:43:09Z</time>
      </trkpt>
      <trkpt lat="45.67901" lon="6.33059">
        <ele>681.01287841797</ele>
        <time>2010-08-27T18:43:50Z</time>
      </trkpt>
      <trkpt lat="45.67908" lon="6.33075">
        <ele>679.28778076172</ele>
        <time>2010-08-27T18:44:20Z</time>
      </trkpt>
      <trkpt lat="45.67912" lon="6.33089">
        <ele>677.11968994141</ele>
        <time>2010-08-27T18:44:50Z</time>
      </trkpt>
      <trkpt lat="45.67922" lon="6.33109">
        <ele>677.67260742188</ele>
        <time>2010-08-27T18:45:20Z</time>
      </trkpt>
      <trkpt lat="45.67922" lon="6.33116">
        <ele>675.55102539062</ele>
        <time>2010-08-27T18:45:57Z</time>
      </trkpt>
      <trkpt lat="45.67943" lon="6.33171">
        <ele>673.28356933594</ele>
        <time>2010-08-27T18:46:27Z</time>
      </trkpt>
      <trkpt lat="45.6799" lon="6.33285">
        <ele>669.75311279297</ele>
        <time>2010-08-27T18:46:57Z</time>
      </trkpt>
      <trkpt lat="45.67989" lon="6.33277">
        <ele>670.96508789062</ele>
        <time>2010-08-27T18:47:27Z</time>
      </trkpt>
      <trkpt lat="45.68007" lon="6.3331">
        <ele>669.46319580078</ele>
        <time>2010-08-27T18:47:57Z</time>
      </trkpt>
      <trkpt lat="45.67943" lon="6.3327">
        <ele>654.58288574219</ele>
        <time>2010-08-27T18:48:27Z</time>
      </trkpt>
      <trkpt lat="45.67938" lon="6.33334">
        <ele>643.064453125</ele>
        <time>2010-08-27T18:48:57Z</time>
      </trkpt>
      <trkpt lat="45.67972" lon="6.33528">
        <ele>634.97003173828</ele>
        <time>2010-08-27T18:49:27Z</time>
      </trkpt>
      <trkpt lat="45.68039" lon="6.33823">
        <ele>607.66741943359</ele>
        <time>2010-08-27T18:49:57Z</time>
      </trkpt>
      <trkpt lat="45.6806" lon="6.33939">
        <ele>596.96649169922</ele>
        <time>2010-08-27T18:50:27Z</time>
      </trkpt>
      <trkpt lat="45.68075" lon="6.34176">
        <ele>580.06976318359</ele>
        <time>2010-08-27T18:50:57Z</time>
      </trkpt>
      <trkpt lat="45.67834" lon="6.34092">
        <ele>559.44128417969</ele>
        <time>2010-08-27T18:51:27Z</time>
      </trkpt>
      <trkpt lat="45.67706" lon="6.33945">
        <ele>565.79614257812</ele>
        <time>2010-08-27T18:51:57Z</time>
      </trkpt>
      <trkpt lat="45.6764" lon="6.33755">
        <ele>560.19378662109</ele>
        <time>2010-08-27T18:52:27Z</time>
      </trkpt>
      <trkpt lat="45.67506" lon="6.33657">
        <ele>553.34191894531</ele>
        <time>2010-08-27T18:52:57Z</time>
      </trkpt>
      <trkpt lat="45.67414" lon="6.33722">
        <ele>551</ele>
        <time>2010-08-27T18:53:27Z</time>
      </trkpt>
      <trkpt lat="45.6742" lon="6.33721">
        <ele>551</ele>
        <time>2010-08-27T18:53:57Z</time>
      </trkpt>
      <trkpt lat="45.67422" lon="6.33733">
        <ele>551</ele>
        <time>2010-08-27T18:54:27Z</time>
      </trkpt>
      <trkpt lat="45.67421" lon="6.33727">
        <ele>551</ele>
        <time>2010-08-27T18:56:29Z</time>
      </trkpt>
      <trkpt lat="45.67426" lon="6.33729">
        <ele>551</ele>
        <time>2010-08-27T18:56:59Z</time>
      </trkpt>
      <trkpt lat="45.67421" lon="6.33727">
        <ele>551</ele>
        <time>2010-08-27T18:58:29Z</time>
      </trkpt>
    </trkseg>
  </trk>
</gpx>